Another Hard Day at the Office Weather Stats

 
 
 

High monthly outside Temperature, 22.8 , C
Low monthly outside Temperature, -1.0 , C
High yearly outside Temperature, 30.9 , C
Low yearly outside Temperature, -2.2 , C

Low monthly barometer, 1001.1 , mb
High monthly barometer, 1028.0 , mb
Low yearly barometer, 975.0 , mb
High yearly barometer 1041.1 , mb

High wind speed, 25.0 , mph
Time of High wind speed, 21:37 , mph
High monthly wind speed, 47.0 , mph
High yearly wind speed, 55.0 , mph

 

 




3126
                    Temp     Hi    Low   Out    Dew  Wind  Wind   Wind    Hi    Hi   Wind   Heat    THW                Rain    Heat    Cool    In     In    In     In     In   In Air  Wind  Wind    ISS   Arc.
  Date    Time     Out   Temp   Temp   Hum    Pt. Speed   Dir    Run Speed   Dir  Chill  Index  Index   Bar    Rain  Rate    D-D     D-D    Temp   Hum    Dew   Heat    EMC Density  Samp   Tx   Recept  Int.
---------------------------------------------------------------------------------------------------------------------------------------------------------------------------------------------------------------
 1/06/20   0:05   15.6   15.7   15.6    68    9.7   9.0   NNE   0.75  17.0    NE   14.3   15.2   13.9  1020.3  0.00  0.00   0.009   0.000   34.9    28   13.7   34.7   5.36  .0710    114    1    100.0    5 
 1/06/20   0:10   15.6   15.6   15.6    68    9.7   9.0    NE   0.75  16.0   ENE   14.3   15.2   13.9  1020.3  0.00  0.00   0.010   0.000   34.9    28   13.7   34.7   5.36  .0710    117    1    100.0    5 
 1/06/20   0:15   15.6   15.6   15.6    68    9.7   9.0    NE   0.75  15.0    NE   14.3   15.2   13.9  1020.4  0.00  0.00   0.010   0.000   34.9    28   13.7   34.7   5.36  .0710    115    1    100.0    5 
 1/06/20   0:20   15.5   15.6   15.4    69    9.8   9.0   NNE   0.75  17.0   ENE   14.2   15.1   13.8  1020.4  0.00  0.00   0.010   0.000   34.9    28   13.7   34.7   5.36  .0710    116    1    100.0    5 
 1/06/20   0:25   15.4   15.5   15.4    70    9.9   9.0   NNE   0.75  16.0     E   14.1   15.1   13.7  1020.4  0.00  0.00   0.010   0.000   34.9    28   13.7   34.7   5.36  .0710    116    1    100.0    5 
 1/06/20   0:30   15.4   15.4   15.4    70    9.9   9.0   NNE   0.75  16.0   ENE   14.1   15.1   13.7  1020.3  0.00  0.00   0.010   0.000   34.9    28   13.7   34.7   5.36  .0710    116    1    100.0    5 
 1/06/20   0:35   15.4   15.4   15.4    70   10.0   9.0   NNE   0.75  14.0   NNE   14.2   15.1   13.8  1020.3  0.00  0.00   0.010   0.000   34.9    28   13.7   34.7   5.36  .0710    117    1    100.0    5 
 1/06/20   0:40   15.4   15.4   15.4    70    9.9   9.0   NNE   0.75  16.0   NNE   14.1   15.1   13.7  1020.3  0.00  0.00   0.010   0.000   34.8    28   13.6   34.6   5.37  .0710    117    1    100.0    5 
 1/06/20   0:45   15.4   15.4   15.3    70    9.9   9.0   NNE   0.75  16.0   ENE   14.1   15.1   13.7  1020.2  0.00  0.00   0.010   0.000   34.8    28   13.6   34.6   5.37  .0710    116    1    100.0    5 
 1/06/20   0:50   15.3   15.3   15.3    71   10.1   9.0   NNE   0.75  16.0   NNE   14.0   15.0   13.7  1020.2  0.00  0.00   0.010   0.000   34.8    28   13.6   34.6   5.37  .0710    117    1    100.0    5 
 1/06/20   0:55   15.3   15.3   15.3    71   10.1   9.0   NNE   0.75  15.0     N   14.0   15.0   13.7  1020.3  0.00  0.00   0.010   0.000   34.8    28   13.6   34.5   5.37  .0710    117    1    100.0    5 
 1/06/20   1:00   15.3   15.3   15.3    71   10.1   8.0   NNE   0.67  16.0     E   14.4   15.0   14.1  1020.3  0.00  0.00   0.010   0.000   34.8    28   13.6   34.6   5.37  .0710    117    1    100.0    5 
 1/06/20   1:05   15.3   15.3   15.3    71   10.1   9.0   NNE   0.75  15.0   NNE   14.0   15.0   13.7  1020.3  0.00  0.00   0.010   0.000   34.8    28   13.6   34.5   5.37  .0710    115    1    100.0    5 
 1/06/20   1:10   15.3   15.3   15.3    71   10.0   9.0   NNE   0.75  15.0    NE   13.9   14.9   13.6  1020.2  0.00  0.00   0.011   0.000   34.8    28   13.6   34.5   5.37  .0710    118    1    100.0    5 
 1/06/20   1:15   15.2   15.3   15.2    72   10.2   9.0   NNE   0.75  16.0   NNE   13.8   14.8   13.5  1020.2  0.00  0.00   0.011   0.000   34.8    28   13.6   34.5   5.37  .0710    117    1    100.0    5 
 1/06/20   1:20   15.1   15.2   15.1    73   10.3   9.0   NNE   0.75  18.0   NNE   13.7   14.8   13.4  1020.2  0.00  0.00   0.011   0.000   34.7    28   13.5   34.4   5.38  .0710    117    1    100.0    5 
 1/06/20   1:25   15.1   15.1   15.1    73   10.3   9.0   NNE   0.75  16.0   NNE   13.7   14.7   13.3  1020.0  0.00  0.00   0.011   0.000   34.7    28   13.5   34.4   5.38  .0710    117    1    100.0    5 
 1/06/20   1:30   15.0   15.1   15.0    73   10.2   9.0   NNE   0.75  15.0    NE   13.6   14.7   13.3  1020.1  0.00  0.00   0.012   0.000   34.7    28   13.5   34.4   5.38  .0710    116    1    100.0    5 
 1/06/20   1:35   14.9   15.0   14.9    74   10.3   8.0   NNE   0.67  14.0   ENE   13.9   14.6   13.7  1020.0  0.00  0.00   0.012   0.000   34.7    28   13.5   34.4   5.38  .0710    117    1    100.0    5 
 1/06/20   1:40   14.9   14.9   14.8    74   10.3   8.0   NNE   0.67  11.0     N   13.9   14.6   13.7  1020.0  0.00  0.00   0.012   0.000   34.7    28   13.5   34.3   5.39  .0710    115    1    100.0    5 
 1/06/20   1:45   14.8   14.9   14.8    74   10.2   8.0   NNE   0.67  14.0   NNE   13.8   14.6   13.6  1019.9  0.00  0.00   0.012   0.000   34.7    28   13.5   34.3   5.39  .0710    115    1    100.0    5 
 1/06/20   1:50   14.9   14.9   14.8    74   10.3   9.0   NNE   0.75  14.0   NNE   13.5   14.6   13.2  1019.9  0.00  0.00   0.012   0.000   34.7    28   13.5   34.3   5.39  .0710    117    1    100.0    5 
 1/06/20   1:55   14.9   14.9   14.8    74   10.3   9.0   NNE   0.75  16.0   NNE   13.6   14.7   13.3  1019.9  0.00  0.00   0.012   0.000   34.7    28   13.5   34.3   5.39  .0710    116    1    100.0    5 
 1/06/20   2:00   14.9   15.0   14.9    74   10.3   9.0   NNE   0.75  18.0    NE   13.6   14.7   13.3  1019.9  0.00  0.00   0.012   0.000   34.6    28   13.4   34.3   5.39  .0710    117    1    100.0    5 
 1/06/20   2:05   14.9   15.0   14.9    74   10.3   8.0   NNE   0.67  15.0    NE   14.0   14.7   13.7  1020.0  0.00  0.00   0.012   0.000   34.6    28   13.4   34.3   5.39  .0710    117    1    100.0    5 
 1/06/20   2:10   14.9   14.9   14.9    75   10.5   9.0   NNE   0.75  16.0   ENE   13.5   14.6   13.2  1019.9  0.00  0.00   0.012   0.000   34.6    28   13.4   34.3   5.39  .0710    116    1    100.0    5 
 1/06/20   2:15   14.8   14.9   14.8    75   10.4   8.0   NNE   0.67  14.0     N   13.8   14.6   13.6  1020.0  0.00  0.00   0.012   0.000   34.6    28   13.4   34.3   5.39  .0710    118    1    100.0    5 
 1/06/20   2:20   14.7   14.8   14.7    75   10.3   8.0   NNE   0.67  13.0   NNE   13.7   14.4   13.4  1020.0  0.00  0.00   0.013   0.000   34.6    28   13.4   34.2   5.40  .0710    116    1    100.0    5 
 1/06/20   2:25   14.6   14.7   14.6    76   10.4   7.0   NNE   0.58  12.0   NNE   13.9   14.3   13.7  1019.9  0.00  0.00   0.013   0.000   34.6    28   13.4   34.2   5.40  .0710    117    1    100.0    5 
 1/06/20   2:30   14.4   14.6   14.4    77   10.5   8.0   NNE   0.67  12.0    NE   13.4   14.2   13.2  1019.9  0.00  0.00   0.014   0.000   34.5    28   13.3   34.1   5.40  .0711    117    1    100.0    5 
 1/06/20   2:35   14.3   14.4   14.3    77   10.3   9.0   NNE   0.75  15.0   NNE   12.7   14.1   12.5  1019.9  0.00  0.00   0.014   0.000   34.5    28   13.3   34.1   5.40  .0711    116    1    100.0    5 
 1/06/20   2:40   14.3   14.3   14.3    78   10.5   9.0   NNE   0.75  14.0    NE   12.7   14.1   12.6  1019.9  0.00  0.00   0.014   0.000   34.5    28   13.3   34.1   5.40  .0711    117    1    100.0    5 
 1/06/20   2:45   14.3   14.3   14.3    78   10.5   8.0   NNE   0.67  13.0    NE   13.2   14.1   13.0  1019.9  0.00  0.00   0.014   0.000   34.5    28   13.3   34.1   5.40  .0711    116    1    100.0    5 
 1/06/20   2:50   14.2   14.3   14.2    78   10.4   9.0   NNE   0.75  14.0   NNE   12.7   14.1   12.5  1019.9  0.00  0.00   0.014   0.000   34.4    28   13.3   34.1   5.41  .0711    117    1    100.0    5 
 1/06/20   2:55   14.2   14.2   14.2    78   10.4   9.0   NNE   0.75  15.0   ENE   12.6   14.0   12.4  1020.0  0.00  0.00   0.014   0.000   34.4    28   13.3   34.1   5.41  .0711    115    1    100.0    5 
 1/06/20   3:00   14.1   14.2   14.1    79   10.5   8.0   NNE   0.67  14.0     N   12.9   13.9   12.8  1020.0  0.00  0.00   0.015   0.000   34.4    28   13.3   34.1   5.41  .0711    117    1    100.0    5 
 1/06/20   3:05   14.1   14.1   14.1    79   10.5   8.0   NNE   0.67  13.0   NNE   12.9   13.9   12.8  1020.1  0.00  0.00   0.015   0.000   34.4    28   13.2   34.0   5.42  .0711    116    1    100.0    5 
 1/06/20   3:10   14.1   14.1   14.1    79   10.5   7.0   NNE   0.58  11.0    NE   13.3   13.9   13.2  1020.0  0.00  0.00   0.015   0.000   34.4    28   13.2   34.0   5.42  .0711    115    1    100.0    5 
 1/06/20   3:15   14.1   14.1   14.0    80   10.7   8.0   NNE   0.67  13.0     N   12.9   13.9   12.8  1019.9  0.00  0.00   0.015   0.000   34.4    28   13.2   34.0   5.42  .0711    115    1    100.0    5 
 1/06/20   3:20   14.0   14.1   14.0    80   10.6   8.0   NNE   0.67  12.0   NNE   12.8   13.8   12.7  1019.9  0.00  0.00   0.015   0.000   34.4    28   13.2   34.0   5.42  .0711    117    1    100.0    5 
 1/06/20   3:25   14.0   14.1   14.0    80   10.6   8.0   NNE   0.67  14.0   NNE   12.8   13.8   12.7  1019.9  0.00  0.00   0.015   0.000   34.4    28   13.2   34.0   5.42  .0711    116    1    100.0    5 
 1/06/20   3:30   14.0   14.1   14.0    80   10.6   8.0   NNE   0.67  13.0   NNE   12.8   13.8   12.7  1019.9  0.00  0.00   0.015   0.000   34.4    28   13.2   34.0   5.42  .0711    116    1    100.0    5 
 1/06/20   3:35   14.1   14.1   14.0    80   10.7   7.0   NNE   0.58  12.0   NNE   13.3   13.9   13.2  1019.9  0.00  0.00   0.015   0.000   34.3    28   13.2   33.9   5.42  .0711    115    1    100.0    5 
 1/06/20   3:40   14.1   14.2   14.1    79   10.5   7.0   NNE   0.58  13.0   NNE   13.4   13.9   13.2  1019.9  0.00  0.00   0.015   0.000   34.3    28   13.2   33.9   5.42  .0711    116    1    100.0    5 
 1/06/20   3:45   14.2   14.2   14.2    79   10.6   7.0   NNE   0.58  10.0    NE   13.5   14.1   13.3  1019.8  0.00  0.00   0.014   0.000   34.3    28   13.2   33.9   5.42  .0711    115    1    100.0    5 
 1/06/20   3:50   14.3   14.3   14.2    79   10.7   8.0   NNE   0.67  14.0   NNE   13.2   14.1   13.0  1019.9  0.00  0.00   0.014   0.000   34.3    28   13.2   33.9   5.42  .0711    117    1    100.0    5 
 1/06/20   3:55   14.3   14.3   14.3    79   10.7   7.0   NNE   0.58  12.0   NNE   13.7   14.2   13.5  1019.9  0.00  0.00   0.014   0.000   34.3    28   13.2   33.9   5.42  .0711    117    1    100.0    5 
 1/06/20   4:00   14.4   14.4   14.3    78   10.7   8.0   NNE   0.67  13.0    NE   13.4   14.3   13.2  1019.9  0.00  0.00   0.014   0.000   34.3    28   13.2   33.8   5.43  .0711    116    1    100.0    5 
 1/06/20   4:05   14.5   14.5   14.4    78   10.7   7.0   NNE   0.58  13.0   NNE   13.8   14.3   13.7  1019.9  0.00  0.00   0.013   0.000   34.3    28   13.2   33.8   5.43  .0711    117    1    100.0    5 
 1/06/20   4:10   14.6   14.6   14.5    77   10.6   6.0   NNE   0.50  10.0     N   14.1   14.3   13.9  1019.9  0.00  0.00   0.013   0.000   34.3    28   13.2   33.8   5.43  .0711    114    1    100.0    5 
 1/06/20   4:15   14.6   14.6   14.6    77   10.6   8.0   NNE   0.67  15.0    NE   13.6   14.4   13.4  1019.8  0.00  0.00   0.013   0.000   34.3    28   13.2   33.8   5.43  .0711    115    1    100.0    5 
 1/06/20   4:20   14.6   14.7   14.6    77   10.6   7.0   NNE   0.58  11.0    NE   14.0   14.4   13.8  1019.9  0.00  0.00   0.013   0.000   34.3    28   13.2   33.8   5.43  .0711    117    1    100.0    5 
 1/06/20   4:25   14.6   14.6   14.6    78   10.8   7.0   NNE   0.58  12.0    NE   13.9   14.4   13.7  1019.9  0.00  0.00   0.013   0.000   34.2    28   13.1   33.8   5.43  .0711    117    1    100.0    5 
 1/06/20   4:30   14.6   14.6   14.5    78   10.8   7.0   NNE   0.58  12.0    NE   13.9   14.4   13.7  1019.8  0.00  0.00   0.013   0.000   34.2    28   13.1   33.8   5.43  .0711    117    1    100.0    5 
 1/06/20   4:35   14.5   14.6   14.5    78   10.7   7.0   NNE   0.58  13.0   NNE   13.8   14.3   13.7  1019.9  0.00  0.00   0.013   0.000   34.2    28   13.1   33.8   5.43  .0711    117    1    100.0    5 
 1/06/20   4:40   14.5   14.5   14.5    78   10.7   7.0   NNE   0.58  13.0   NNE   13.8   14.3   13.7  1019.8  0.00  0.00   0.013   0.000   34.2    28   13.1   33.8   5.43  .0711    117    1    100.0    5 
 1/06/20   4:45   14.4   14.5   14.4    78   10.7   7.0   NNE   0.58  11.0   ENE   13.8   14.3   13.6  1019.8  0.00  0.00   0.014   0.000   34.2    28   13.1   33.8   5.43  .0711    117    1    100.0    5 
 1/06/20   4:50   14.4   14.5   14.4    78   10.7   7.0   NNE   0.58  13.0   NNE   13.8   14.3   13.6  1019.8  0.00  0.00   0.014   0.000   34.2    28   13.1   33.8   5.43  .0711    116    1    100.0    5 
 1/06/20   4:55   14.5   14.5   14.4    77   10.5   7.0   NNE   0.58  12.0    NE   13.8   14.3   13.6  1019.9  0.00  0.00   0.013   0.000   34.2    28   13.1   33.7   5.44  .0711    117    1    100.0    5 
 1/06/20   5:00   14.4   14.5   14.4    77   10.5   6.0   NNE   0.50   9.0     N   14.0   14.2   13.8  1019.8  0.00  0.00   0.014   0.000   34.2    28   13.1   33.8   5.43  .0711    115    1    100.0    5 
 1/06/20   5:05   14.3   14.5   14.3    78   10.5   6.0   NNE   0.50  11.0     N   13.9   14.2   13.7  1019.8  0.00  0.00   0.014   0.000   34.2    28   13.1   33.7   5.44  .0711    115    1    100.0    5 
 1/06/20   5:10   14.2   14.3   14.2    79   10.6   7.0   NNE   0.58  12.0   NNE   13.4   14.0   13.3  1020.0  0.00  0.00   0.014   0.000   34.2    28   13.1   33.7   5.44  .0712    116    1    100.0    5 
 1/06/20   5:15   14.1   14.2   14.0    80   10.7   8.0   NNE   0.67  12.0    NE   12.9   13.9   12.8  1020.0  0.00  0.00   0.015   0.000   34.2    28   13.1   33.7   5.44  .0712    116    1    100.0    5 
 1/06/20   5:20   13.9   14.1   13.9    80   10.5   8.0   NNE   0.67  12.0   ENE   12.8   13.8   12.6  1020.0  0.00  0.00   0.015   0.000   34.1    28   13.0   33.6   5.45  .0712    115    1    100.0    5 
 1/06/20   5:25   13.9   13.9   13.9    81   10.7   8.0   NNE   0.67  11.0   NNE   12.7   13.7   12.6  1020.1  0.00  0.00   0.015   0.000   34.1    28   13.0   33.6   5.45  .0712    118    1    100.0    5 
 1/06/20   5:30   13.9   13.9   13.8    81   10.7   9.0   NNE   0.75  12.0   NNE   12.3   13.7   12.1  1020.0  0.00  0.00   0.015   0.000   34.1    28   13.0   33.6   5.45  .0712    117    1    100.0    5 
 1/06/20   5:35   13.9   13.9   13.8    81   10.7   7.0   NNE   0.58  10.0     N   13.1   13.7   12.9  1020.0  0.00  0.00   0.015   0.000   34.1    28   13.0   33.6   5.45  .0712    117    1    100.0    5 
 1/06/20   5:40   14.1   14.1   13.9    81   10.8   7.0   NNE   0.58  11.0   NNE   13.3   13.9   13.2  1020.1  0.00  0.00   0.015   0.000   34.1    28   13.0   33.6   5.45  .0712    116    1    100.0    5 
 1/06/20   5:45   14.1   14.1   14.1    81   10.9   8.0   NNE   0.67  15.0   NNE   13.0   14.0   12.9  1020.1  0.00  0.00   0.015   0.000   34.1    28   13.0   33.6   5.45  .0712    115    1    100.0    5 
 1/06/20   5:50   14.1   14.1   14.1    81   10.9   8.0   NNE   0.67  13.0   NNE   13.0   14.0   12.9  1020.1  0.00  0.00   0.015   0.000   34.1    28   13.0   33.6   5.45  .0712    117    1    100.0    5 
 1/06/20   5:55   14.2   14.2   14.1    80   10.8   8.0   NNE   0.67  12.0   NNE   13.1   14.1   12.9  1020.1  0.00  0.00   0.014   0.000   34.1    28   13.0   33.6   5.45  .0712    115    1    100.0    5 
 1/06/20   6:00   14.3   14.3   14.2    80   10.9   7.0   NNE   0.58  11.0    NE   13.7   14.2   13.6  1020.1  0.00  0.00   0.014   0.000   34.1    28   13.0   33.6   5.45  .0712    116    1    100.0    5 
 1/06/20   6:05   14.4   14.4   14.3    80   11.0   7.0   NNE   0.58  13.0   NNE   13.7   14.3   13.6  1020.1  0.00  0.00   0.014   0.000   34.0    28   12.9   33.5   5.46  .0712    117    1    100.0    5 
 1/06/20   6:10   14.4   14.4   14.4    79   10.8   8.0   NNE   0.67  12.0   NNE   13.4   14.3   13.2  1020.1  0.00  0.00   0.014   0.000   34.0    28   12.9   33.5   5.46  .0712    117    1    100.0    5 
 1/06/20   6:15   14.5   14.5   14.4    79   10.9   8.0   NNE   0.67  13.0   NNE   13.4   14.3   13.3  1020.0  0.00  0.00   0.013   0.000   34.0    28   12.9   33.5   5.46  .0712    115    1    100.0    5 
 1/06/20   6:20   14.5   14.6   14.5    79   10.9   8.0   NNE   0.67  14.0   NNE   13.4   14.3   13.3  1019.9  0.00  0.00   0.013   0.000   34.0    28   12.9   33.5   5.46  .0712    117    1    100.0    5 
 1/06/20   6:25   14.5   14.6   14.5    79   10.9   8.0   NNE   0.67  14.0   NNE   13.4   14.3   13.3  1019.9  0.00  0.00   0.013   0.000   34.0    28   12.9   33.5   5.46  .0712    117    1    100.0    5 
 1/06/20   6:30   14.6   14.6   14.6    79   11.0   8.0   NNE   0.67  13.0   NNE   13.5   14.4   13.3  1020.1  0.00  0.00   0.013   0.000   34.0    28   12.9   33.5   5.46  .0712    118    1    100.0    5 
 1/06/20   6:35   14.7   14.7   14.6    79   11.1   8.0   NNE   0.67  13.0     N   13.7   14.5   13.5  1020.0  0.00  0.00   0.013   0.000   34.0    28   12.9   33.5   5.46  .0712    114    1    100.0    5 
 1/06/20   6:40   14.7   14.7   14.7    79   11.1   9.0   NNE   0.75  15.0   ENE   13.2   14.5   13.1  1020.0  0.00  0.00   0.013   0.000   33.9    28   12.9   33.4   5.46  .0712    117    1    100.0    5 
 1/06/20   6:45   14.7   14.7   14.7    78   10.9   9.0   NNE   0.75  14.0   NNE   13.3   14.6   13.1  1020.0  0.00  0.00   0.013   0.000   33.9    28   12.8   33.3   5.47  .0712    117    1    100.0    5 
 1/06/20   6:50   14.8   14.8   14.7    78   11.0   9.0   NNE   0.75  15.0   NNE   13.3   14.6   13.2  1020.1  0.00  0.00   0.012   0.000   33.9    28   12.9   33.4   5.46  .0712    117    1    100.0    5 
 1/06/20   6:55   14.8   14.8   14.7    78   11.0   9.0   NNE   0.75  12.0     N   13.4   14.7   13.2  1020.1  0.00  0.00   0.012   0.000   33.9    28   12.9   33.4   5.46  .0712    117    1    100.0    5 
 1/06/20   7:00   15.0   15.0   14.8    78   11.2   8.0   NNE   0.67  13.0    NE   14.1   14.8   13.9  1020.1  0.00  0.00   0.012   0.000   33.9    28   12.8   33.3   5.47  .0712    117    1    100.0    5 
 1/06/20   7:05   15.1   15.1   15.0    77   11.1   9.0   NNE   0.75  16.0   NNE   13.7   14.9   13.5  1020.2  0.00  0.00   0.011   0.000   33.9    28   12.8   33.3   5.47  .0712    117    1    100.0    5 
 1/06/20   7:10   15.3   15.3   15.1    76   11.1   9.0   NNE   0.75  16.0   NNE   13.9   15.1   13.7  1020.2  0.00  0.00   0.011   0.000   33.9    28   12.8   33.3   5.47  .0712    116    1    100.0    5 
 1/06/20   7:15   15.4   15.4   15.3    76   11.2  10.0   NNE   0.83  15.0   NNE   13.8   15.2   13.6  1020.1  0.00  0.00   0.010   0.000   33.9    28   12.8   33.3   5.47  .0712    116    1    100.0    5 
 1/06/20   7:20   15.4   15.5   15.4    75   11.0   9.0   NNE   0.75  16.0     N   14.2   15.2   13.9  1020.1  0.00  0.00   0.010   0.000   33.9    28   12.8   33.3   5.47  .0712    117    1    100.0    5 
 1/06/20   7:25   15.5   15.6   15.4    76   11.3   9.0   NNE   0.75  15.0     N   14.2   15.3   14.1  1020.2  0.00  0.00   0.010   0.000   33.9    28   12.8   33.3   5.47  .0712    117    1    100.0    5 
 1/06/20   7:30   15.7   15.7   15.5    75   11.3   7.0   NNE   0.58  13.0   NNE   15.3   15.5   15.1  1020.3  0.00  0.00   0.009   0.000   33.8    28   12.8   33.3   5.48  .0713    116    1    100.0    5 
 1/06/20   7:35   15.8   15.8   15.7    74   11.2   8.0   NNE   0.67  14.0     N   15.1   15.6   14.8  1020.2  0.00  0.00   0.009   0.000   33.8    28   12.8   33.3   5.48  .0713    117    1    100.0    5 
 1/06/20   7:40   15.9   15.9   15.8    74   11.3   7.0   NNE   0.58  12.0     N   15.6   15.7   15.3  1020.2  0.00  0.00   0.008   0.000   33.8    28   12.8   33.3   5.48  .0713    116    1    100.0    5 
 1/06/20   7:45   16.1   16.1   15.9    74   11.4   7.0   NNE   0.58  14.0    NE   15.7   15.8   15.5  1020.3  0.00  0.00   0.008   0.000   33.8    28   12.8   33.3   5.48  .0713    117    1    100.0    5 
 1/06/20   7:50   16.3   16.3   16.1    73   11.4   8.0   NNE   0.67  13.0   NNE   15.6   16.1   15.4  1020.4  0.00  0.00   0.007   0.000   33.8    28   12.8   33.3   5.48  .0713    116    1    100.0    5 
 1/06/20   7:55   16.3   16.4   16.2    73   11.5   7.0   NNE   0.58  14.0     E   16.1   16.1   15.8  1020.3  0.00  0.00   0.007   0.000   33.8    28   12.8   33.3   5.48  .0713    115    1    100.0    5 
 1/06/20   8:00   16.5   16.5   16.3    72   11.4   7.0   NNE   0.58  14.0    NE   16.3   16.3   16.1  1020.3  0.00  0.00   0.006   0.000   33.8    28   12.8   33.3   5.48  .0713    116    1    100.0    5 
 1/06/20   8:05   16.7   16.7   16.5    71   11.4   7.0   NNE   0.58  12.0   NNE   16.5   16.4   16.3  1020.4  0.00  0.00   0.006   0.000   33.8    28   12.8   33.3   5.48  .0713    117    1    100.0    5 
 1/06/20   8:10   16.8   16.8   16.7    71   11.5   7.0   NNE   0.58  12.0   NNE   16.6   16.6   16.4  1020.4  0.00  0.00   0.005   0.000   33.9    28   12.8   33.3   5.47  .0713    116    1    100.0    5 
 1/06/20   8:15   17.1   17.1   16.8    69   11.4   7.0   NNE   0.58  13.0   NNE   17.1   16.9   16.8  1020.4  0.00  0.00   0.004   0.000   33.8    28   12.8   33.3   5.48  .0713    116    1    100.0    5 
 1/06/20   8:20   17.4   17.4   17.1    67   11.2   7.0    NE   0.58  13.0    NE   17.3   17.1   17.1  1020.4  0.00  0.00   0.003   0.000   33.8    28   12.8   33.3   5.48  .0713    117    1    100.0    5 
 1/06/20   8:25   17.7   17.7   17.4    66   11.2   7.0   NNE   0.58  12.0   ENE   17.7   17.4   17.4  1020.4  0.00  0.00   0.002   0.000   33.8    28   12.8   33.3   5.48  .0713    117    1    100.0    5 
 1/06/20   8:30   17.9   17.9   17.7    66   11.4   6.0   NNE   0.50  10.0    NE   17.9   17.7   17.7  1020.4  0.00  0.00   0.002   0.000   33.9    28   12.8   33.3   5.47  .0713    117    1    100.0    5 
 1/06/20   8:35   18.2   18.2   17.9    65   11.5   6.0   NNE   0.50  13.0    NE   18.2   17.9   17.9  1020.4  0.00  0.00   0.001   0.000   33.9    28   12.8   33.3   5.47  .0713    118    1    100.0    5 
 1/06/20   8:40   18.2   18.3   18.2    65   11.5   8.0   NNE   0.67  13.0   ENE   17.9   18.1   17.7  1020.4  0.00  0.00   0.000   0.000   33.9    28   12.8   33.3   5.47  .0713    117    1    100.0    5 
 1/06/20   8:45   18.4   18.4   18.2    65   11.7   5.0   NNE   0.42  10.0   ENE   18.4   18.2   18.2  1020.5  0.00  0.00   0.000   0.000   33.9    28   12.8   33.3   5.47  .0713    115    1    100.0    5 
 1/06/20   8:50   18.6   18.7   18.4    64   11.7   6.0   NNE   0.50  14.0   NNE   18.6   18.4   18.4  1020.5  0.00  0.00   0.000   0.001   33.9    28   12.8   33.3   5.47  .0713    117    1    100.0    5 
 1/06/20   8:55   18.8   18.8   18.7    64   11.8   6.0   NNE   0.50  12.0   ENE   18.8   18.6   18.6  1020.5  0.00  0.00   0.000   0.002   33.9    28   12.9   33.4   5.46  .0713    116    1    100.0    5 
 1/06/20   9:00   19.0   19.0   18.8    64   12.0   5.0   NNE   0.42  13.0     E   19.0   18.8   18.8  1020.5  0.00  0.00   0.000   0.002   33.9    28   12.9   33.4   5.46  .0713    116    1    100.0    5 
 1/06/20   9:05   19.3   19.3   19.1    62   11.8   6.0   NNE   0.50  11.0   ENE   19.3   19.1   19.1  1020.5  0.00  0.00   0.000   0.003   33.9    28   12.9   33.4   5.46  .0713    116    1    100.0    5 
 1/06/20   9:10   19.6   19.6   19.3    60   11.6   6.0   NNE   0.50  12.0   NNE   19.6   19.4   19.4  1020.4  0.00  0.00   0.000   0.004   33.9    28   12.9   33.4   5.46  .0713    117    1    100.0    5 
 1/06/20   9:15   19.8   19.8   19.6    59   11.5   7.0   NNE   0.58  15.0   NNE   19.8   19.5   19.5  1020.5  0.00  0.00   0.000   0.005   33.9    28   12.9   33.4   5.46  .0713    117    1    100.0    5 
 1/06/20   9:20   19.8   19.8   19.8    59   11.6   7.0   NNE   0.58  12.0   NNE   19.8   19.6   19.6  1020.4  0.00  0.00   0.000   0.005   34.0    28   12.9   33.5   5.46  .0712    117    1    100.0    5 
 1/06/20   9:25   20.1   20.1   19.8    57   11.3   7.0   NNE   0.58  12.0    NE   20.1   19.7   19.7  1020.4  0.00  0.00   0.000   0.006   34.0    28   12.9   33.5   5.46  .0712    117    1    100.0    5 
 1/06/20   9:30   20.4   20.4   20.1    55   11.1   7.0   ENE   0.58  15.0   ENE   20.4   19.9   19.9  1020.5  0.00  0.00   0.000   0.007   34.0    28   12.9   33.5   5.46  .0712    117    1    100.0    5 
 1/06/20   9:35   20.6   20.6   20.4    54   11.0   6.0   NNE   0.50  12.0    NE   20.6   20.0   20.0  1020.5  0.00  0.00   0.000   0.008   34.0    28   12.9   33.5   5.46  .0712    116    1    100.0    5 
 1/06/20   9:40   20.8   20.8   20.6    54   11.1   6.0   NNE   0.50  12.0     N   20.8   20.1   20.1  1020.4  0.00  0.00   0.000   0.008   34.1    28   13.0   33.6   5.45  .0712    118    1    100.0    5 
 1/06/20   9:45   20.9   20.9   20.8    53   11.0   7.0   NNE   0.58  13.0    NE   20.9   20.2   20.2  1020.4  0.00  0.00   0.000   0.009   34.1    28   13.0   33.6   5.45  .0712    117    1    100.0    5 
 1/06/20   9:50   21.0   21.1   20.9    53   11.1   7.0    NE   0.58  13.0   NNE   21.0   20.2   20.2  1020.4  0.00  0.00   0.000   0.009   34.1    28   13.0   33.6   5.45  .0712    117    1    100.0    5 
 1/06/20   9:55   21.1   21.1   21.0    52   10.9   7.0   NNE   0.58  13.0   NNE   21.1   20.3   20.3  1020.4  0.00  0.00   0.000   0.010   34.1    28   13.0   33.6   5.45  .0712    117    1    100.0    5 
 1/06/20  10:00   21.4   21.4   21.1    51   10.8   6.0   NNE   0.50  11.0   NNE   21.4   20.6   20.6  1020.5  0.00  0.00   0.000   0.011   34.1    28   13.0   33.6   5.45  .0712    117    1    100.0    5 
 1/06/20  10:05   21.4   21.4   21.3    51   10.8   8.0   NNE   0.67  15.0   ENE   21.1   20.6   20.3  1020.4  0.00  0.00   0.000   0.011   34.2    28   13.1   33.7   5.44  .0712    117    1    100.0    5 
 1/06/20  10:10   21.3   21.4   21.3    51   10.8   8.0   NNE   0.67  14.0   NNE   21.1   20.5   20.2  1020.3  0.00  0.00   0.000   0.010   34.2    28   13.1   33.7   5.44  .0712    117    1    100.0    5 
 1/06/20  10:15   21.6   21.6   21.3    50   10.7   7.0   NNE   0.58  12.0   NNE   21.6   20.7   20.7  1020.3  0.00  0.00   0.000   0.011   34.2    28   13.1   33.7   5.44  .0712    117    1    100.0    5 
 1/06/20  10:20   21.7   21.7   21.6    50   10.8   8.0   NNE   0.67  14.0     N   21.4   21.0   20.7  1020.3  0.00  0.00   0.000   0.012   34.2    28   13.1   33.8   5.43  .0712    115    1    100.0    5 
 1/06/20  10:25   22.1   22.1   21.7    49   10.8   7.0    NE   0.58  14.0    NE   22.1   21.4   21.4  1020.3  0.00  0.00   0.000   0.013   34.2    28   13.1   33.8   5.43  .0712    117    1    100.0    5 
 1/06/20  10:30   22.1   22.1   22.0    49   10.8   7.0    NE   0.58  12.0   NNE   22.1   21.4   21.4  1020.2  0.00  0.00   0.000   0.013   34.2    28   13.1   33.8   5.43  .0712    117    1    100.0    5 
 1/06/20  10:35   22.2   22.2   22.1    49   10.9   7.0   NNE   0.58  15.0   NNE   22.2   21.6   21.6  1020.3  0.00  0.00   0.000   0.013   34.2    28   13.1   33.8   5.43  .0712    116    1    100.0    5 
 1/06/20  10:40   22.3   22.3   22.2    47   10.4   7.0    NE   0.58  14.0   NNE   22.3   21.6   21.6  1020.4  0.00  0.00   0.000   0.014   34.3    28   13.2   33.8   5.43  .0711    116    1    100.0    5 
 1/06/20  10:45   22.7   22.7   22.3    45   10.1   7.0   ENE   0.58  15.0     E   22.7   22.1   22.1  1020.4  0.00  0.00   0.000   0.015   34.3    28   13.2   33.8   5.43  .0712    117    1    100.0    5 
 1/06/20  10:50   22.8   22.8   22.7    44    9.9   8.0     E   0.67  15.0     E   22.5   22.2   21.9  1020.4  0.00  0.00   0.000   0.015   34.3    28   13.2   33.9   5.42  .0711    117    1    100.0    5 
 1/06/20  10:55   22.7   22.8   22.7    45   10.2   7.0    NE   0.58  14.0   NNE   22.7   22.2   22.2  1020.4  0.00  0.00   0.000   0.015   34.3    28   13.2   33.9   5.42  .0711    116    1    100.0    5 
 1/06/20  11:00   22.7   22.7   22.7    45   10.2   7.0    NE   0.58  15.0    NE   22.7   22.2   22.2  1020.3  0.00  0.00   0.000   0.015   34.4    28   13.2   34.0   5.42  .0711    117    1    100.0    5 
 1/06/20  11:05   22.8   22.9   22.7    44    9.9   6.0   NNE   0.50  11.0    NE   22.8   22.3   22.3  1020.3  0.00  0.00   0.000   0.016   34.4    28   13.2   34.0   5.42  .0711    117    1    100.0    5 
 1/06/20  11:10   23.0   23.0   22.8    45   10.4   7.0    NE   0.58  12.0   ENE   23.0   22.6   22.6  1020.2  0.00  0.00   0.000   0.016   34.4    28   13.2   34.0   5.42  .0711    117    1    100.0    5 
 1/06/20  11:15   23.2   23.2   23.0    44   10.3   6.0   ENE   0.50  14.0    NE   23.2   22.8   22.8  1020.2  0.00  0.00   0.000   0.017   34.4    28   13.3   34.1   5.41  .0711    117    1    100.0    5 
 1/06/20  11:20   23.3   23.3   23.2    45   10.7   8.0   ENE   0.67  14.0   NNE   23.1   23.0   22.7  1020.2  0.00  0.00   0.000   0.017   34.4    28   13.3   34.1   5.41  .0711    117    1    100.0    5 
 1/06/20  11:25   23.5   23.5   23.3    43   10.2   7.0   ENE   0.58  17.0     E   23.5   23.1   23.1  1020.2  0.00  0.00   0.000   0.018   34.5    28   13.3   34.1   5.40  .0711    117    1    100.0    5 
 1/06/20  11:30   23.4   23.5   23.4    43   10.1   7.0     E   0.58  15.0   ENE   23.4   23.0   23.0  1020.2  0.00  0.00   0.000   0.018   34.5    28   13.3   34.1   5.40  .0711    116    1    100.0    5 
 1/06/20  11:35   23.3   23.4   23.3    43   10.0   7.0   ENE   0.58  14.0   ENE   23.3   22.9   22.9  1020.2  0.00  0.00   0.000   0.017   34.6    28   13.4   34.2   5.40  .0711    116    1    100.0    5 
 1/06/20  11:40   23.7   23.7   23.3    43   10.3   6.0   ENE   0.50  14.0   ENE   23.7   23.3   23.3  1020.2  0.00  0.00   0.000   0.019   34.6    28   13.4   34.3   5.39  .0710    117    1    100.0    5 
 1/06/20  11:45   23.7   23.7   23.6    43   10.4   6.0   ENE   0.50  14.0    NE   23.7   23.4   23.4  1020.3  0.00  0.00   0.000   0.019   34.6    28   13.4   34.3   5.39  .0710    118    1    100.0    5 
 1/06/20  11:50   23.8   23.9   23.7    42   10.1   8.0     E   0.67  19.0   ESE   23.6   23.5   23.2  1020.3  0.00  0.00   0.000   0.019   34.6    28   13.4   34.3   5.39  .0710    117    1    100.0    5 
 1/06/20  11:55   23.8   23.8   23.7    43   10.4   7.0    NE   0.58  12.0    NE   23.8   23.5   23.5  1020.2  0.00  0.00   0.000   0.019   34.6    28   13.4   34.3   5.39  .0710    117    1    100.0    5 
 1/06/20  12:00   23.8   23.8   23.7    42   10.1   7.0   ENE   0.58  14.0     E   23.8   23.5   23.5  1020.2  0.00  0.00   0.000   0.019   34.7    28   13.5   34.3   5.39  .0710    117    1    100.0    5 
 1/06/20  12:05   23.8   23.9   23.8    43   10.5   7.0    NE   0.58  17.0    NE   23.8   23.6   23.6  1020.0  0.00  0.00   0.000   0.019   34.7    28   13.5   34.3   5.39  .0710    116    1    100.0    5 
 1/06/20  12:10   24.1   24.1   23.8    43   10.7   4.0    NE   0.33  11.0     E   24.1   23.8   23.8  1020.0  0.00  0.00   0.000   0.020   34.7    28   13.5   34.4   5.38  .0710    117    1    100.0    5 
 1/06/20  12:15   24.1   24.2   24.1    42   10.4   7.0   NNE   0.58  15.0   ENE   24.1   23.8   23.8  1020.1  0.00  0.00   0.000   0.020   34.7    28   13.5   34.4   5.38  .0710    117    1    100.0    5 
 1/06/20  12:20   24.0   24.1   23.9    43   10.6   6.0    NE   0.50  11.0    NE   24.0   23.7   23.7  1019.9  0.00  0.00   0.000   0.020   34.7    28   13.5   34.4   5.38  .0710    117    1    100.0    5 
 1/06/20  12:25   23.9   24.0   23.9    43   10.6   7.0    NE   0.58  14.0   ENE   23.9   23.7   23.7  1020.0  0.00  0.00   0.000   0.019   34.8    28   13.6   34.5   5.37  .0710    116    1    100.0    5 
 1/06/20  12:30   24.3   24.3   23.9    42   10.6   6.0   ENE   0.50  16.0   ENE   24.3   23.9   23.9  1019.9  0.00  0.00   0.000   0.021   34.8    28   13.6   34.5   5.37  .0710    117    1    100.0    5 
 1/06/20  12:35   24.2   24.3   24.2    42   10.4   6.0    NE   0.50  14.0   ENE   24.2   23.8   23.8  1019.9  0.00  0.00   0.000   0.020   34.8    28   13.6   34.5   5.37  .0710    116    1    100.0    5 
 1/06/20  12:40   24.4   24.4   24.2    42   10.6   6.0   NNE   0.50  14.0   ENE   24.4   24.0   24.0  1020.0  0.00  0.00   0.000   0.021   34.8    28   13.6   34.6   5.37  .0710    117    1    100.0    5 
 1/06/20  12:45   24.4   24.6   24.4    40   10.0   7.0   ESE   0.58  15.0   ESE   24.4   23.9   23.9  1020.1  0.00  0.00   0.000   0.021   34.8    28   13.6   34.6   5.37  .0710    116    1    100.0    5 
 1/06/20  12:50   24.5   24.5   24.4    41   10.4   7.0   ENE   0.58  14.0   ENE   24.5   24.1   24.1  1020.0  0.00  0.00   0.000   0.021   34.9    29   14.2   34.8   5.56  .0709    118    1    100.0    5 
 1/06/20  12:55   24.8   24.8   24.5    40   10.3   5.0   ENE   0.42  11.0   ENE   24.8   24.4   24.4  1020.0  0.00  0.00   0.000   0.023   34.9    29   14.2   34.8   5.56  .0709    117    1    100.0    5 
 1/06/20  13:00   24.9   24.9   24.8    40   10.4   4.0   ESE   0.33  12.0   ENE   24.9   24.5   24.5  1019.9  0.00  0.00   0.000   0.023   34.9    28   13.7   34.7   5.36  .0709    116    1    100.0    5 
 1/06/20  13:05   25.2   25.2   24.9    39   10.3   6.0   ESE   0.50  13.0     E   25.2   24.7   24.7  1020.0  0.00  0.00   0.000   0.024   34.9    29   14.3   34.9   5.55  .0709    117    1    100.0    5 
 1/06/20  13:10   25.3   25.4   25.2    39   10.3   7.0   ESE   0.58  13.0   ENE   25.3   24.8   24.8  1019.9  0.00  0.00   0.000   0.024   34.9    29   14.3   34.9   5.55  .0709    116    1    100.0    5 
 1/06/20  13:15   24.3   25.3   24.3    45   11.6  10.0   ESE   0.83  17.0   ESE   23.3   24.1   23.1  1019.9  0.00  0.00   0.000   0.021   34.9    29   14.3   34.9   5.55  .0709    116    1    100.0    5 
 1/06/20  13:20   24.6   24.6   24.2    42   10.8   5.0   ESE   0.42  13.0     E   24.6   24.2   24.2  1019.9  0.00  0.00   0.000   0.022   35.0    29   14.3   35.0   5.55  .0709    117    1    100.0    5 
 1/06/20  13:25   24.5   24.6   24.5    41   10.4  10.0   ESE   0.83  16.0   ESE   23.4   24.1   23.0  1019.8  0.00  0.00   0.000   0.021   35.0    29   14.3   35.0   5.55  .0709    116    1    100.0    5 
 1/06/20  13:30   24.4   24.5   24.4    45   11.7   9.0   ESE   0.75  16.0   ESE   23.7   24.2   23.5  1019.8  0.00  0.00   0.000   0.021   35.0    29   14.3   35.0   5.55  .0709    117    1    100.0    5 
 1/06/20  13:35   24.7   24.7   24.4    42   10.9   6.0    SE   0.50  12.0   ESE   24.7   24.3   24.3  1019.8  0.00  0.00   0.000   0.022   35.0    29   14.3   35.0   5.55  .0709    117    1    100.0    5 
 1/06/20  13:40   23.9   24.7   23.9    49   12.6   9.0   ESE   0.75  14.0     E   23.2   23.9   23.2  1019.8  0.00  0.00   0.000   0.019   35.0    29   14.3   35.0   5.55  .0709    117    1    100.0    5 
 1/06/20  13:45   23.4   23.9   23.3    53   13.3  10.0    SE   0.83  13.0    SE   22.3   23.4   22.3  1019.8  0.00  0.00   0.000   0.018   35.1    29   14.4   35.1   5.55  .0708    116    1    100.0    5 
 1/06/20  13:50   23.6   23.6   23.4    51   12.8  10.0    SE   0.83  15.0   ESE   22.4   23.6   22.4  1019.8  0.00  0.00   0.000   0.018   35.1    29   14.4   35.1   5.55  .0708    118    1    100.0    5 
 1/06/20  13:55   21.1   23.6   21.1    64   14.0  11.0   SSE   0.92  15.0    SE   19.7   20.9   19.4  1019.8  0.00  0.00   0.000   0.010   35.1    29   14.4   35.1   5.55  .0708    117    1    100.0    5 
 1/06/20  14:00   20.0   21.1   19.9    69   14.1   9.0     S   0.75  15.0     S   19.2   20.3   19.5  1019.9  0.00  0.00   0.000   0.006   35.1    29   14.4   35.1   5.55  .0708    116    1    100.0    5 
 1/06/20  14:05   19.4   20.1   19.4    73   14.4   8.0     S   0.67  12.0     S   19.1   19.7   19.4  1019.9  0.00  0.00   0.000   0.004   35.2    29   14.5   35.2   5.56  .0708    117    1    100.0    5 
 1/06/20  14:10   19.3   19.4   19.2    74   14.5   7.0     S   0.58  11.0     S   19.3   19.6   19.6  1019.9  0.00  0.00   0.000   0.003   35.2    29   14.5   35.2   5.56  .0708    115    1    100.0    5 
 1/06/20  14:15   19.3   19.4   19.3    74   14.5   7.0     S   0.58  11.0     S   19.3   19.6   19.6  1020.0  0.00  0.00   0.000   0.003   35.2    29   14.5   35.2   5.56  .0708    117    1    100.0    5 
 1/06/20  14:20   18.8   19.3   18.7    74   14.0   8.0     S   0.67  13.0     S   18.4   19.0   18.7  1020.0  0.00  0.00   0.000   0.002   35.2    29   14.5   35.2   5.56  .0708    117    1    100.0    5 
 1/06/20  14:25   18.8   18.9   18.8    74   14.0   6.0   SSW   0.50   8.0     S   18.8   19.0   19.0  1019.9  0.00  0.00   0.000   0.002   35.2    29   14.5   35.2   5.56  .0708    116    1    100.0    5 
 1/06/20  14:30   18.9   18.9   18.8    75   14.4   5.0     S   0.42   9.0   SSE   18.9   19.2   19.2  1019.9  0.00  0.00   0.000   0.002   35.2    29   14.5   35.3   5.56  .0708    116    1    100.0    5 
 1/06/20  14:35   19.2   19.2   19.0    73   14.3   6.0   SSE   0.50   9.0    SE   19.2   19.5   19.5  1019.8  0.00  0.00   0.000   0.003   35.2    29   14.5   35.3   5.56  .0708    116    1    100.0    5 
 1/06/20  14:40   19.3   19.3   19.2    71   13.9   8.0   SSE   0.67  10.0   SSE   18.9   19.5   19.2  1019.8  0.00  0.00   0.000   0.003   35.2    29   14.5   35.3   5.56  .0708    117    1    100.0    5 
 1/06/20  14:45   19.3   19.3   19.2    73   14.4   7.0   SSE   0.58  13.0     S   19.3   19.6   19.6  1019.7  0.00  0.00   0.000   0.003   35.3    29   14.5   35.3   5.56  .0708    117    1    100.0    5 
 1/06/20  14:50   19.6   19.7   19.3    70   13.9   8.0   SSE   0.67  13.0   SSE   19.2   19.8   19.4  1019.8  0.00  0.00   0.000   0.004   35.3    29   14.5   35.3   5.56  .0708    116    1    100.0    5 
 1/06/20  14:55   19.6   19.6   19.5    71   14.2   9.0   SSE   0.75  13.0     S   18.9   19.9   19.2  1019.7  0.00  0.00   0.000   0.004   35.3    29   14.5   35.3   5.56  .0708    117    1    100.0    5 
 1/06/20  15:00   19.6   19.6   19.4    71   14.2   9.0   SSE   0.75  13.0     S   18.8   19.8   19.1  1019.7  0.00  0.00   0.000   0.004   35.3    29   14.5   35.3   5.56  .0708    117    1    100.0    5 
 1/06/20  15:05   19.3   19.6   19.2    69   13.4   8.0   SSE   0.67  11.0   SSE   18.9   19.4   19.1  1019.7  0.00  0.00   0.000   0.003   35.3    29   14.5   35.3   5.56  .0708    113    1     99.1    5 
 1/06/20  15:10   19.2   19.2   19.1    71   13.8   7.0   SSE   0.58  10.0   SSE   19.2   19.4   19.4  1019.7  0.00  0.00   0.000   0.003   35.3    29   14.6   35.4   5.56  .0708    117    1    100.0    5 
 1/06/20  15:15   19.3   19.3   19.2    68   13.3   8.0   SSE   0.67  11.0    SE   19.0   19.4   19.1  1019.6  0.00  0.00   0.000   0.003   35.3    29   14.5   35.3   5.56  .0708    116    1    100.0    5 
 1/06/20  15:20   19.7   19.7   19.3    67   13.4   8.0   SSE   0.67  12.0    SE   19.3   19.8   19.4  1019.5  0.00  0.00   0.000   0.005   35.3    29   14.6   35.4   5.56  .0707    115    1    100.0    5 
 1/06/20  15:25   20.1   20.1   19.7    66   13.5   8.0   SSE   0.67  12.0    SE   19.7   20.2   19.8  1019.6  0.00  0.00   0.000   0.006   35.3    29   14.6   35.4   5.56  .0707    116    1    100.0    5 
 1/06/20  15:30   19.9   20.0   19.8    67   13.6   6.0   SSE   0.50   8.0   SSE   19.9   20.1   20.1  1019.7  0.00  0.00   0.000   0.005   35.4    29   14.6   35.5   5.56  .0707    117    1    100.0    5 
 1/06/20  15:35   19.9   20.0   19.8    66   13.4   4.0   SSE   0.33   6.0     S   19.9   20.1   20.1  1019.6  0.00  0.00   0.000   0.006   35.4    29   14.6   35.5   5.56  .0707    117    1    100.0    5 
 1/06/20  15:40   20.2   20.2   19.9    67   13.8   6.0   SSE   0.50   9.0   SSE   20.2   20.3   20.3  1019.6  0.00  0.00   0.000   0.006   35.4    29   14.7   35.6   5.57  .0707    117    1    100.0    5 
 1/06/20  15:45   20.3   20.3   20.2    67   14.0   7.0   SSE   0.58  10.0    SE   20.3   20.4   20.4  1019.6  0.00  0.00   0.000   0.007   35.4    29   14.7   35.6   5.57  .0707    117    1    100.0    5 
 1/06/20  15:50   20.4   20.4   20.3    65   13.6   8.0    SE   0.67  12.0   SSE   20.0   20.4   20.0  1019.5  0.00  0.00   0.000   0.007   35.5    29   14.7   35.6   5.57  .0707    116    1    100.0    5 
 1/06/20  15:55   20.6   20.6   20.4    64   13.6   9.0    SE   0.75  14.0    SE   19.8   20.5   19.7  1019.5  0.00  0.00   0.000   0.008   35.5    29   14.7   35.6   5.57  .0707    116    1    100.0    5 
 1/06/20  16:00   20.5   20.7   20.5    64   13.5  10.0    SE   0.83  13.0    SE   19.3   20.4   19.2  1019.4  0.00  0.00   0.000   0.008   35.5    29   14.7   35.6   5.57  .0707    116    1    100.0    5 
 1/06/20  16:05   20.6   20.6   20.5    65   13.8   8.0    SE   0.67  11.0    SE   20.2   20.6   20.2  1019.4  0.00  0.00   0.000   0.008   35.5    29   14.7   35.6   5.57  .0707    117    1    100.0    5 
 1/06/20  16:10   20.5   20.6   20.5    64   13.5   9.0   SSE   0.75  12.0    SE   19.7   20.4   19.6  1019.4  0.00  0.00   0.000   0.008   35.6    29   14.8   35.7   5.57  .0707    116    1    100.0    5 
 1/06/20  16:15   20.6   20.7   20.6    64   13.6   9.0    SE   0.75  13.0    SE   19.8   20.5   19.7  1019.3  0.00  0.00   0.000   0.008   35.6    29   14.8   35.7   5.57  .0707    117    1    100.0    5 
 1/06/20  16:20   20.6   20.6   20.4    65   13.7  10.0    SE   0.83  14.0   SSE   19.4   20.5   19.3  1019.4  0.00  0.00   0.000   0.008   35.6    29   14.8   35.7   5.57  .0707    117    1    100.0    5 
 1/06/20  16:25   20.5   20.6   20.5    65   13.7   8.0    SE   0.67  13.0   ESE   20.1   20.4   20.1  1019.3  0.00  0.00   0.000   0.008   35.6    29   14.8   35.7   5.57  .0707    117    1    100.0    5 
 1/06/20  16:30   20.4   20.5   20.3    65   13.6   8.0    SE   0.67  10.0   SSE   20.0   20.4   20.0  1019.3  0.00  0.00   0.000   0.007   35.6    29   14.8   35.7   5.57  .0707    117    1    100.0    5 
 1/06/20  16:35   20.4   20.5   20.4    66   13.9   9.0    SE   0.75  11.0    SE   19.7   20.5   19.7  1019.2  0.00  0.00   0.000   0.007   35.7    29   14.9   35.9   5.57  .0706     63    1     55.3    5 
 1/06/20  16:40   20.3   20.5   20.3    66   13.7   9.0    SE   0.75  13.0    SE   19.5   20.3   19.6  1019.2  0.00  0.00   0.000   0.007   35.7    29   14.9   35.9   5.57  .0706    116    1    100.0    5 
 1/06/20  16:45   20.5   20.5   20.3    66   13.9   9.0    SE   0.75  12.0    SE   19.7   20.5   19.7  1019.3  0.00  0.00   0.000   0.008   35.7    29   14.9   35.9   5.57  .0706    117    1    100.0    5 
 1/06/20  16:50   20.4   20.5   20.4    66   13.9   9.0    SE   0.75  12.0    SE   19.7   20.5   19.7  1019.2  0.00  0.00   0.000   0.007   35.7    29   14.9   35.9   5.57  .0706    116    1    100.0    5 
 1/06/20  16:55   20.5   20.6   20.4    66   13.9  10.0    SE   0.83  11.0   ESE   19.3   20.5   19.3  1019.1  0.00  0.00   0.000   0.008   35.7    28   14.3   35.7   5.37  .0707    116    1    100.0    5 
 1/06/20  17:00   20.3   20.4   20.3    67   13.9   8.0    SE   0.67  11.0    SE   19.9   20.4   20.0  1019.1  0.00  0.00   0.000   0.007   35.7    28   14.4   35.8   5.38  .0706    118    1    100.0    5 
 1/06/20  17:05   20.3   20.3   20.2    67   13.9   7.0    SE   0.58  10.0   ESE   20.3   20.4   20.4  1019.1  0.00  0.00   0.000   0.007   35.7    29   14.9   35.9   5.58  .0706    117    1    100.0    5 
 1/06/20  17:10   20.2   20.3   20.2    66   13.6   7.0    SE   0.58  11.0    SE   20.2   20.3   20.3  1019.1  0.00  0.00   0.000   0.006   35.7    29   14.9   35.9   5.58  .0706    117    1    100.0    5 
 1/06/20  17:15   19.8   20.2   19.8    67   13.5   6.0    SE   0.50  10.0    SE   19.8   19.9   19.9  1019.1  0.00  0.00   0.000   0.005   35.7    28   14.4   35.8   5.38  .0706    117    1    100.0    5 
 1/06/20  17:20   19.6   19.7   19.6    69   13.7   5.0    SE   0.42   7.0   ESE   19.6   19.8   19.8  1019.0  0.00  0.00   0.000   0.004   35.7    29   14.9   35.9   5.58  .0706    115    1    100.0    5 
 1/06/20  17:25   19.9   19.9   19.6    67   13.6   7.0    SE   0.58   9.0    SE   19.9   20.1   20.1  1019.0  0.00  0.00   0.000   0.005   35.7    28   14.4   35.8   5.38  .0706    116    1    100.0    5 
 1/06/20  17:30   19.9   19.9   19.9    67   13.6   6.0    SE   0.50  10.0   ESE   19.9   20.1   20.1  1019.0  0.00  0.00   0.000   0.006   35.8    29   15.0   36.0   5.58  .0706    117    1    100.0    5 
 1/06/20  17:35   19.9   19.9   19.8    69   14.0   6.0   SSE   0.50   9.0    SE   19.9   20.2   20.2  1019.0  0.00  0.00   0.000   0.005   35.8    28   14.4   35.8   5.38  .0706    116    1    100.0    5 
 1/06/20  17:40   19.8   19.9   19.8    70   14.2   6.0   SSE   0.50  10.0    SE   19.8   20.1   20.1  1018.9  0.00  0.00   0.000   0.005   35.8    28   14.4   35.8   5.38  .0706    117    1    100.0    5 
 1/06/20  17:45   19.8   19.9   19.8    68   13.8   6.0   SSE   0.50   9.0    SE   19.8   20.1   20.1  1019.0  0.00  0.00   0.000   0.005   35.8    28   14.4   35.8   5.38  .0706    116    1    100.0    5 
 1/06/20  17:50   19.7   19.8   19.7    70   14.0   6.0   SSE   0.50  10.0    SE   19.7   19.9   19.9  1018.9  0.00  0.00   0.000   0.005   35.8    28   14.4   35.8   5.38  .0706    117    1    100.0    5 
 1/06/20  17:55   19.7   19.8   19.6    70   14.0   6.0   SSE   0.50   9.0   SSE   19.7   19.9   19.9  1018.8  0.00  0.00   0.000   0.005   35.8    29   15.0   36.0   5.58  .0706    116    1    100.0    5 
 1/06/20  18:00   19.8   19.9   19.7    69   14.0   5.0    SE   0.42   9.0   ESE   19.8   20.1   20.1  1019.0  0.00  0.00   0.000   0.005   35.8    28   14.4   35.8   5.38  .0706    118    1    100.0    5 
 1/06/20  18:05   19.7   19.8   19.7    70   14.0   5.0    SE   0.42   7.0    SE   19.7   19.9   19.9  1019.0  0.00  0.00   0.000   0.005   35.8    28   14.4   35.8   5.38  .0706    116    1    100.0    5 
 1/06/20  18:10   19.6   19.7   19.6    70   13.9   5.0   SSE   0.42   9.0    SE   19.6   19.8   19.8  1018.9  0.00  0.00   0.000   0.004   35.8    29   15.0   36.1   5.58  .0706    116    1    100.0    5 
 1/06/20  18:15   19.6   19.6   19.5    70   13.9   2.0    SE   0.17   4.0    SE   19.6   19.8   19.8  1018.9  0.00  0.00   0.000   0.004   35.8    28   14.5   35.9   5.38  .0706    117    1    100.0    5 
 1/06/20  18:20   19.4   19.6   19.4    71   14.0   3.0   SSE   0.25   5.0    SE   19.4   19.7   19.7  1018.9  0.00  0.00   0.000   0.004   35.9    28   14.5   36.0   5.38  .0706    117    1    100.0    5 
 1/06/20  18:25   19.2   19.4   19.2    71   13.8   3.0     S   0.25   5.0     S   19.2   19.4   19.4  1018.9  0.00  0.00   0.000   0.003   35.9    28   14.5   36.0   5.38  .0706    116    1    100.0    5 
 1/06/20  18:30   19.6   19.6   19.2    66   13.0   3.0     S   0.25  10.0   ESE   19.6   19.6   19.6  1018.9  0.00  0.00   0.000   0.004   35.9    28   14.5   36.0   5.38  .0706    116    1    100.0    5 
 1/06/20  18:35   20.9   20.9   19.6    49    9.8   3.0    NE   0.25   8.0   ENE   20.9   20.0   20.0  1018.9  0.00  0.00   0.000   0.009   35.8    28   14.5   35.9   5.38  .0706    115    1    100.0    5 
 1/06/20  18:40   22.9   22.9   21.1    42    9.3   6.0   ENE   0.50  12.0   ENE   22.9   22.4   22.4  1018.9  0.00  0.00   0.000   0.016   35.9    28   14.5   36.0   5.38  .0706    117    1    100.0    5 
 1/06/20  18:45   23.8   23.8   23.0    39    9.0   5.0   ENE   0.42  10.0   ENE   23.8   23.3   23.3  1018.9  0.00  0.00   0.000   0.019   35.9    28   14.5   36.0   5.38  .0706    117    1    100.0    5 
 1/06/20  18:50   24.1   24.1   23.8    38    8.9   6.0   ENE   0.50  11.0   ENE   24.1   23.6   23.6  1018.8  0.00  0.00   0.000   0.020   35.9    28   14.5   36.0   5.38  .0706    117    1    100.0    5 
 1/06/20  18:55   24.2   24.2   24.1    38    8.9   7.0   ENE   0.58  15.0     E   24.2   23.6   23.6  1018.8  0.00  0.00   0.000   0.020   35.9    28   14.5   36.0   5.38  .0706    117    1    100.0    5 
 1/06/20  19:00   24.2   24.2   24.1    37    8.6   7.0    NE   0.58  15.0   ENE   24.2   23.6   23.6  1018.8  0.00  0.00   0.000   0.020   35.9    28   14.6   36.1   5.38  .0706    116    1    100.0    5 
 1/06/20  19:05   24.3   24.3   24.2    37    8.7   5.0   NNE   0.42  11.0     E   24.3   23.7   23.7  1018.8  0.00  0.00   0.000   0.021   35.9    28   14.5   36.0   5.38  .0706    117    1    100.0    5 
 1/06/20  19:10   24.3   24.3   24.2    37    8.7   5.0    NE   0.42  12.0   ENE   24.3   23.7   23.7  1018.7  0.00  0.00   0.000   0.021   35.9    28   14.5   36.0   5.38  .0706    116    1    100.0    5 
 1/06/20  19:15   24.2   24.3   24.2    36    8.1   7.0    NE   0.58  14.0   ENE   24.2   23.6   23.6  1018.8  0.00  0.00   0.000   0.020   35.9    28   14.5   36.0   5.38  .0706    117    1    100.0    5 
 1/06/20  19:20   24.1   24.2   24.1    37    8.5   6.0    NE   0.50  13.0   ENE   24.1   23.4   23.4  1018.8  0.00  0.00   0.000   0.020   35.9    28   14.5   36.0   5.38  .0706    116    1    100.0    5 
 1/06/20  19:25   23.8   24.1   23.8    37    8.3   7.0   NNE   0.58  15.0   NNE   23.8   23.2   23.2  1018.8  0.00  0.00   0.000   0.019   35.9    28   14.5   36.0   5.38  .0706    116    1    100.0    5 
 1/06/20  19:30   23.7   23.8   23.7    38    8.5   7.0   NNE   0.58  13.0   NNE   23.7   23.1   23.1  1018.8  0.00  0.00   0.000   0.019   35.9    28   14.6   36.1   5.38  .0706    116    1    100.0    5 
 1/06/20  19:35   23.7   23.7   23.6    38    8.5   7.0    NE   0.58  13.0   NNE   23.7   23.1   23.1  1019.0  0.00  0.00   0.000   0.019   35.9    28   14.5   36.0   5.38  .0706    117    1    100.0    5 
 1/06/20  19:40   23.5   23.7   23.5    38    8.4   7.0    NE   0.58  13.0    NE   23.5   22.9   22.9  1019.0  0.00  0.00   0.000   0.018   35.9    28   14.5   36.0   5.38  .0706    117    1    100.0    5 
 1/06/20  19:45   23.4   23.5   23.4    38    8.3   6.0    NE   0.50  13.0   ENE   23.4   22.8   22.8  1019.0  0.00  0.00   0.000   0.018   35.9    28   14.6   36.1   5.38  .0706    117    1    100.0    5 
 1/06/20  19:50   23.3   23.4   23.3    39    8.6   6.0   NNE   0.50  12.0    NE   23.3   22.8   22.8  1019.0  0.00  0.00   0.000   0.017   35.9    28   14.6   36.1   5.38  .0706    116    1    100.0    5 
 1/06/20  19:55   23.2   23.3   23.2    39    8.5   5.0   NNE   0.42  12.0   NNE   23.2   22.6   22.6  1019.0  0.00  0.00   0.000   0.017   35.9    28   14.6   36.1   5.38  .0706    117    1    100.0    5 
 1/06/20  20:00   23.1   23.2   23.1    40    8.8   5.0   NNE   0.42  12.0    NE   23.1   22.5   22.5  1019.1  0.00  0.00   0.000   0.017   35.9    28   14.5   36.0   5.38  .0706    117    1    100.0    5 
 1/06/20  20:05   22.9   23.1   22.9    39    8.2   6.0   NNE   0.50  12.0   ENE   22.9   22.2   22.2  1019.2  0.00  0.00   0.000   0.016   35.9    28   14.5   36.0   5.38  .0706    115    1    100.0    5 
 1/06/20  20:10   22.8   22.9   22.8    40    8.5   5.0    NE   0.42  14.0    NE   22.8   22.1   22.1  1019.2  0.00  0.00   0.000   0.016   35.9    28   14.6   36.1   5.38  .0706    116    1    100.0    5 
 1/06/20  20:15   22.7   22.8   22.7    40    8.4   5.0   NNE   0.42  10.0   ENE   22.7   21.9   21.9  1019.2  0.00  0.00   0.000   0.015   35.9    28   14.5   36.0   5.38  .0706    115    1    100.0    5 
 1/06/20  20:20   22.6   22.7   22.6    41    8.7   5.0    NE   0.42   9.0   NNE   22.6   21.8   21.8  1019.2  0.00  0.00   0.000   0.015   35.9    28   14.6   36.1   5.38  .0706    117    1    100.0    5 
 1/06/20  20:25   22.5   22.6   22.5    42    8.9   3.0    NE   0.25   7.0     E   22.5   21.7   21.7  1019.3  0.00  0.00   0.000   0.014   35.9    28   14.6   36.1   5.38  .0706    117    1    100.0    5 
 1/06/20  20:30   22.4   22.5   22.4    42    8.9   3.0    NE   0.25   8.0    NE   22.4   21.6   21.6  1019.3  0.00  0.00   0.000   0.014   35.9    28   14.6   36.1   5.38  .0706    115    1    100.0    5 
 1/06/20  20:35   22.2   22.4   22.2    43    9.0   4.0    NE   0.33  10.0   NNE   22.2   21.3   21.3  1019.3  0.00  0.00   0.000   0.013   35.9    28   14.5   36.0   5.38  .0706    115    1    100.0    5 
 1/06/20  20:40   22.0   22.2   22.0    43    8.8   4.0    NE   0.33   6.0     N   22.0   21.0   21.0  1019.4  0.00  0.00   0.000   0.013   35.9    28   14.6   36.1   5.38  .0706    117    1    100.0    5 
 1/06/20  20:45   21.9   22.0   21.9    44    9.1   3.0    NE   0.25   6.0   NNE   21.9   20.9   20.9  1019.4  0.00  0.00   0.000   0.012   35.9    28   14.5   36.0   5.38  .0706    115    1    100.0    5 
 1/06/20  20:50   21.7   21.9   21.7    45    9.2   5.0   NNE   0.42   8.0   ENE   21.7   20.6   20.6  1019.4  0.00  0.00   0.000   0.012   35.9    28   14.5   36.0   5.38  .0706    116    1    100.0    5 
 1/06/20  20:55   21.4   21.7   21.4    46    9.3   4.0    NE   0.33   8.0    NE   21.4   20.4   20.4  1019.4  0.00  0.00   0.000   0.011   35.9    28   14.5   36.0   5.38  .0706    117    1    100.0    5 
 1/06/20  21:00   21.2   21.4   21.2    47    9.5   5.0    NE   0.42  11.0   ENE   21.2   20.2   20.2  1019.4  0.00  0.00   0.000   0.010   35.9    28   14.5   36.0   5.38  .0706    117    1    100.0    5 
 1/06/20  21:05   21.1   21.2   21.1    48    9.6   5.0    NE   0.42   9.0    NE   21.1   20.0   20.0  1019.5  0.00  0.00   0.000   0.009   35.9    28   14.5   36.0   5.38  .0706    116    1    100.0    5 
 1/06/20  21:10   20.9   21.0   20.8    49    9.8   4.0    NE   0.33  10.0   ENE   20.9   19.9   19.9  1019.6  0.00  0.00   0.000   0.009   35.9    28   14.5   36.0   5.38  .0706    117    1    100.0    5 
 1/06/20  21:15   20.7   20.9   20.7    49    9.6   4.0    NE   0.33   7.0   ENE   20.7   19.8   19.8  1019.6  0.00  0.00   0.000   0.008   35.9    28   14.5   36.0   5.38  .0706    116    1    100.0    5 
 1/06/20  21:20   20.6   20.7   20.6    50    9.8   4.0    NE   0.33   8.0   ENE   20.6   19.8   19.8  1019.7  0.00  0.00   0.000   0.008   35.9    28   14.5   36.0   5.38  .0706    116    1    100.0    5 
 1/06/20  21:25   20.4   20.6   20.4    51   10.0   4.0   ENE   0.33   9.0   ENE   20.4   19.7   19.7  1019.7  0.00  0.00   0.000   0.007   35.9    28   14.5   36.0   5.38  .0706    117    1    100.0    5 
 1/06/20  21:30   20.3   20.4   20.3    51    9.9   3.0   NNE   0.25   6.0     N   20.3   19.6   19.6  1019.7  0.00  0.00   0.000   0.007   35.9    28   14.5   36.0   5.38  .0706    116    1    100.0    5 
 1/06/20  21:35   20.2   20.3   20.2    52   10.0   5.0   ENE   0.42  11.0    NE   20.2   19.6   19.6  1019.7  0.00  0.00   0.000   0.006   35.9    28   14.5   36.0   5.38  .0706    117    1    100.0    5 
 1/06/20  21:40   20.1   20.2   20.1    52    9.9   4.0   ENE   0.33   8.0    NE   20.1   19.4   19.4  1019.7  0.00  0.00   0.000   0.006   35.9    28   14.5   36.0   5.38  .0706    117    1    100.0    5 
 1/06/20  21:45   20.0   20.1   20.0    53   10.1   3.0   ENE   0.25   8.0    NE   20.0   19.4   19.4  1019.8  0.00  0.00   0.000   0.006   35.8    28   14.5   35.9   5.38  .0707    117    1    100.0    5 
 1/06/20  21:50   19.9   20.0   19.9    53   10.0   5.0   ENE   0.42  10.0   ENE   19.9   19.3   19.3  1019.8  0.00  0.00   0.000   0.005   35.8    28   14.5   35.9   5.38  .0707    116    1    100.0    5 
 1/06/20  21:55   19.8   19.9   19.8    53   10.0   5.0   ENE   0.42  12.0   ENE   19.8   19.3   19.3  1019.8  0.00  0.00   0.000   0.005   35.8    28   14.5   35.9   5.38  .0707    117    1    100.0    5 
 1/06/20  22:00   19.7   19.8   19.7    53    9.9   4.0     E   0.33  10.0   ENE   19.7   19.1   19.1  1019.8  0.00  0.00   0.000   0.005   35.8    28   14.5   35.9   5.38  .0707    115    1    100.0    5 
 1/06/20  22:05   19.6   19.7   19.6    53    9.8   3.0   ENE   0.25   8.0   ENE   19.6   19.0   19.0  1019.8  0.00  0.00   0.000   0.004   35.8    28   14.5   35.9   5.38  .0707    115    1    100.0    5 
 1/06/20  22:10   19.6   19.6   19.6    54   10.0   3.0    NE   0.25   8.0   ENE   19.6   19.0   19.0  1019.7  0.00  0.00   0.000   0.004   35.8    28   14.5   35.9   5.38  .0707    116    1    100.0    5 
 1/06/20  22:15   19.4   19.6   19.4    54    9.9   4.0    NE   0.33   7.0   ENE   19.4   18.9   18.9  1019.7  0.00  0.00   0.000   0.004   35.8    28   14.5   35.9   5.38  .0707    118    1    100.0    5 
 1/06/20  22:20   19.4   19.4   19.4    54    9.8   3.0    NE   0.25   9.0   ENE   19.4   18.8   18.8  1019.7  0.00  0.00   0.000   0.004   35.8    28   14.4   35.8   5.38  .0707    117    1    100.0    5 
 1/06/20  22:25   19.2   19.4   19.2    54    9.7   3.0   ENE   0.25   7.0     E   19.2   18.6   18.6  1019.7  0.00  0.00   0.000   0.003   35.8    28   14.5   35.9   5.38  .0707    116    1    100.0    5 
 1/06/20  22:30   19.2   19.2   19.1    54    9.6   3.0    NE   0.25   9.0   ENE   19.2   18.6   18.6  1019.7  0.00  0.00   0.000   0.003   35.8    28   14.4   35.8   5.38  .0707    117    1    100.0    5 
 1/06/20  22:35   19.0   19.1   19.0    55    9.8   4.0    NE   0.33  11.0   ENE   19.0   18.4   18.4  1019.7  0.00  0.00   0.000   0.002   35.8    28   14.4   35.8   5.38  .0707    116    1    100.0    5 
 1/06/20  22:40   18.8   19.0   18.8    56    9.9   4.0   NNE   0.33   9.0   ENE   18.8   18.3   18.3  1019.8  0.00  0.00   0.000   0.002   35.8    28   14.4   35.8   5.38  .0707    117    1    100.0    5 
 1/06/20  22:45   18.7   18.8   18.7    56    9.7   5.0   NNE   0.42  10.0   ENE   18.7   18.1   18.1  1019.8  0.00  0.00   0.000   0.001   35.8    28   14.4   35.8   5.38  .0707    117    1    100.0    5 
 1/06/20  22:50   18.6   18.7   18.6    56    9.6   5.0    NE   0.42  11.0    NE   18.6   17.9   17.9  1019.8  0.00  0.00   0.000   0.001   35.8    28   14.4   35.8   5.38  .0707    116    1    100.0    5 
 1/06/20  22:55   18.4   18.6   18.4    57    9.8   4.0    NE   0.33   8.0   ENE   18.4   17.9   17.9  1019.9  0.00  0.00   0.000   0.000   35.8    28   14.4   35.8   5.38  .0707    116    1    100.0    5 
 1/06/20  23:00   18.3   18.4   18.3    57    9.7   4.0   NNE   0.33   8.0   ENE   18.3   17.8   17.8  1020.1  0.00  0.00   0.000   0.000   35.8    28   14.4   35.8   5.38  .0707    117    1    100.0    5 
 1/06/20  23:05   18.2   18.3   18.2    57    9.6   4.0   NNE   0.33   9.0   ENE   18.2   17.6   17.6  1020.0  0.00  0.00   0.000   0.000   35.8    28   14.4   35.8   5.38  .0707    115    1    100.0    5 
 1/06/20  23:10   18.2   18.2   18.2    57    9.5   4.0    NE   0.33   8.0     E   18.2   17.6   17.6  1020.0  0.00  0.00   0.001   0.000   35.7    28   14.4   35.8   5.38  .0707    115    1    100.0    5 
 1/06/20  23:15   18.1   18.2   18.1    57    9.5   3.0    NE   0.25   5.0    NE   18.1   17.5   17.5  1020.0  0.00  0.00   0.001   0.000   35.8    28   14.4   35.8   5.38  .0707    117    1    100.0    5 
 1/06/20  23:20   18.1   18.1   18.1    57    9.4   3.0   ENE   0.25   7.0   ENE   18.1   17.4   17.4  1020.1  0.00  0.00   0.001   0.000   35.7    28   14.4   35.8   5.38  .0707    116    1    100.0    5 
 1/06/20  23:25   18.0   18.1   18.0    57    9.3   2.0   ENE   0.17   6.0     E   18.0   17.4   17.4  1020.1  0.00  0.00   0.001   0.000   35.7    28   14.4   35.8   5.38  .0707    116    1    100.0    5 
 1/06/20  23:30   18.1   18.1   18.0    57    9.4   3.0   ENE   0.25   8.0     E   18.1   17.4   17.4  1020.1  0.00  0.00   0.001   0.000   35.7    28   14.4   35.8   5.38  .0707    117    1    100.0    5 
 1/06/20  23:35   18.0   18.1   17.9    57    9.3   3.0    NE   0.25   6.0   NNE   18.0   17.4   17.4  1020.1  0.00  0.00   0.001   0.000   35.7    28   14.3   35.7   5.37  .0707    115    1    100.0    5 
 1/06/20  23:40   17.8   18.0   17.8    58    9.5   4.0   NNE   0.33   9.0    NE   17.8   17.2   17.2  1020.0  0.00  0.00   0.002   0.000   35.7    28   14.4   35.8   5.38  .0707    117    1    100.0    5 
 1/06/20  23:45   17.7   17.8   17.7    58    9.3   5.0   NNE   0.42   9.0    NE   17.7   17.1   17.1  1020.1  0.00  0.00   0.002   0.000   35.7    28   14.3   35.7   5.37  .0707    117    1    100.0    5 
 1/06/20  23:50   17.6   17.7   17.6    59    9.4   5.0   NNE   0.42   9.0   NNE   17.6   16.9   16.9  1020.1  0.00  0.00   0.003   0.000   35.7    28   14.3   35.7   5.37  .0707    116    1    100.0    5 
 1/06/20  23:55   17.4   17.6   17.4    59    9.3   5.0   NNE   0.42  12.0   ENE   17.4   16.8   16.8  1020.1  0.00  0.00   0.003   0.000   35.7    28   14.3   35.7   5.37  .0707    116    1    100.0    5 
 2/06/20  00:00   17.3   17.4   17.3    60    9.5   6.0    NE   0.50  10.0   NNE   17.3   16.7   16.7  1020.0  0.00  0.00   0.003   0.000   35.7    28   14.3   35.7   5.37  .0707    116    1    100.0    5 
 2/06/20   0:05   17.4   17.4   17.3    60    9.5   6.0   ENE   0.50  10.0   ENE   17.4   16.8   16.8  1020.1  0.00  0.00   0.003   0.000   35.7    28   14.3   35.7   5.37  .0707    114    1    100.0    5 
 2/06/20   0:10   17.3   17.4   17.3    60    9.5   4.0    NE   0.33   9.0   ENE   17.3   16.7   16.7  1020.1  0.00  0.00   0.003   0.000   35.7    28   14.3   35.7   5.37  .0707    117    1    100.0    5 
 2/06/20   0:15   17.3   17.3   17.3    59    9.2   3.0   NNE   0.25   8.0   ENE   17.3   16.7   16.7  1020.0  0.00  0.00   0.004   0.000   35.6    28   14.3   35.6   5.37  .0707    117    1    100.0    5 
 2/06/20   0:20   17.2   17.3   17.2    60    9.4   3.0   NNE   0.25   6.0     E   17.2   16.6   16.6  1020.0  0.00  0.00   0.004   0.000   35.6    28   14.3   35.6   5.37  .0707    116    1    100.0    5 
 2/06/20   0:25   17.2   17.2   17.1    60    9.3   3.0   NNE   0.25   5.0   NNE   17.2   16.6   16.6  1020.0  0.00  0.00   0.004   0.000   35.6    28   14.3   35.6   5.37  .0707    117    1    100.0    5 
 2/06/20   0:30   17.1   17.2   17.1    60    9.2   3.0   NNE   0.25   5.0     N   17.1   16.4   16.4  1019.9  0.00  0.00   0.004   0.000   35.6    28   14.3   35.6   5.37  .0707    116    1    100.0    5 
 2/06/20   0:35   17.0   17.1   16.9    60    9.2   4.0   NNE   0.33   7.0   ENE   17.0   16.4   16.4  1019.9  0.00  0.00   0.005   0.000   35.6    28   14.3   35.6   5.37  .0707    113    1     99.1    5 
 2/06/20   0:40   16.9   17.0   16.9    60    9.1   4.0    NE   0.33   7.0    NE   16.9   16.3   16.3  1019.8  0.00  0.00   0.005   0.000   35.6    28   14.2   35.6   5.37  .0707    118    1    100.0    5 
 2/06/20   0:45   16.9   16.9   16.9    60    9.1   3.0    NE   0.25   9.0   ENE   16.9   16.3   16.3  1019.8  0.00  0.00   0.005   0.000   35.6    28   14.3   35.6   5.37  .0707    115    1    100.0    5 
 2/06/20   0:50   16.9   16.9   16.9    60    9.1   5.0    NE   0.42   9.0   ENE   16.9   16.2   16.2  1019.7  0.00  0.00   0.005   0.000   35.6    28   14.2   35.6   5.37  .0707    116    1    100.0    5 
 2/06/20   0:55   16.8   16.9   16.8    60    9.0   4.0   NNE   0.33  10.0   ENE   16.8   16.2   16.2  1019.7  0.00  0.00   0.005   0.000   35.6    28   14.2   35.6   5.37  .0707    116    1    100.0    5 
 2/06/20   1:00   16.8   16.8   16.8    59    8.7   4.0    NE   0.33   8.0   NNE   16.8   16.1   16.1  1019.7  0.00  0.00   0.005   0.000   35.6    28   14.2   35.6   5.37  .0707    117    1    100.0    5 
 2/06/20   1:05   16.7   16.8   16.7    59    8.6   5.0   NNE   0.42  13.0   ENE   16.7   15.9   15.9  1019.6  0.00  0.00   0.006   0.000   35.5    28   14.2   35.4   5.37  .0707    117    1    100.0    5 
 2/06/20   1:10   16.6   16.7   16.6    59    8.6   6.0    NE   0.50  12.0    NE   16.6   15.9   15.9  1019.7  0.00  0.00   0.006   0.000   35.5    28   14.2   35.4   5.37  .0708    116    1    100.0    5 
 2/06/20   1:15   16.6   16.7   16.6    59    8.6   6.0   ENE   0.50  11.0     E   16.6   15.9   15.9  1019.7  0.00  0.00   0.006   0.000   35.5    28   14.2   35.4   5.37  .0707    117    1    100.0    5 
 2/06/20   1:20   16.6   16.6   16.6    59    8.5   5.0   ENE   0.42  11.0   ENE   16.6   15.8   15.8  1019.7  0.00  0.00   0.006   0.000   35.5    28   14.2   35.4   5.37  .0707    117    1    100.0    5 
 2/06/20   1:25   16.6   16.6   16.6    58    8.3   5.0    NE   0.42  15.0     E   16.6   15.8   15.8  1019.6  0.00  0.00   0.006   0.000   35.5    28   14.2   35.4   5.37  .0707    117    1    100.0    5 
 2/06/20   1:30   16.6   16.6   16.6    58    8.3   5.0   ENE   0.42  15.0     E   16.6   15.9   15.9  1019.5  0.00  0.00   0.006   0.000   35.5    28   14.2   35.4   5.37  .0707    117    1    100.0    5 
 2/06/20   1:35   16.6   16.6   16.6    57    8.0   5.0    NE   0.42  10.0     E   16.6   15.8   15.8  1019.5  0.00  0.00   0.006   0.000   35.5    28   14.2   35.4   5.37  .0707    116    1    100.0    5 
 2/06/20   1:40   16.6   16.6   16.6    57    8.0   5.0    NE   0.42  10.0    NE   16.6   15.8   15.8  1019.5  0.00  0.00   0.006   0.000   35.5    28   14.2   35.4   5.37  .0707    116    1    100.0    5 
 2/06/20   1:45   16.5   16.6   16.5    58    8.2   5.0   NNE   0.42  11.0    NE   16.5   15.8   15.8  1019.5  0.00  0.00   0.006   0.000   35.4    28   14.1   35.4   5.37  .0707    116    1    100.0    5 
 2/06/20   1:50   16.3   16.5   16.3    58    8.0   6.0   NNE   0.50  11.0   NNE   16.2   15.6   15.5  1019.5  0.00  0.00   0.007   0.000   35.4    28   14.1   35.4   5.37  .0707    116    1    100.0    5 
 2/06/20   1:55   16.1   16.3   16.1    59    8.1   7.0   NNE   0.58  12.0   NNE   15.8   15.4   15.1  1019.4  0.00  0.00   0.008   0.000   35.4    28   14.1   35.4   5.37  .0707    116    1    100.0    5 
 2/06/20   2:00   16.1   16.1   16.1    59    8.0   5.0   NNE   0.42  11.0   ENE   16.1   15.3   15.3  1019.3  0.00  0.00   0.008   0.000   35.4    28   14.1   35.4   5.37  .0707    117    1    100.0    5 
 2/06/20   2:05   16.1   16.1   16.0    59    8.0   4.0   NNE   0.33  10.0     E   16.1   15.3   15.3  1019.3  0.00  0.00   0.008   0.000   35.4    28   14.1   35.3   5.36  .0708    117    1    100.0    5 
 2/06/20   2:10   16.1   16.1   16.0    59    8.0   4.0   NNE   0.33  10.0   ENE   16.1   15.3   15.3  1019.2  0.00  0.00   0.008   0.000   35.4    28   14.1   35.3   5.36  .0707    117    1    100.0    5 
 2/06/20   2:15   16.1   16.1   16.1    59    8.0   4.0   NNE   0.33   7.0    NE   16.1   15.3   15.3  1019.2  0.00  0.00   0.008   0.000   35.4    28   14.1   35.3   5.36  .0707    116    1    100.0    5 
 2/06/20   2:20   16.1   16.1   16.1    59    8.0   5.0   NNE   0.42  12.0    NE   16.1   15.3   15.3  1019.2  0.00  0.00   0.008   0.000   35.4    28   14.1   35.3   5.36  .0707    117    1    100.0    5 
 2/06/20   2:25   16.0   16.1   16.0    59    8.0   5.0   NNE   0.42   9.0   NNE   16.0   15.3   15.3  1019.1  0.00  0.00   0.008   0.000   35.3    28   14.1   35.2   5.36  .0708    116    1    100.0    5 
 2/06/20   2:30   15.9   16.0   15.9    60    8.2   6.0   NNE   0.50  10.0    NE   15.8   15.3   15.1  1019.1  0.00  0.00   0.008   0.000   35.3    28   14.1   35.2   5.36  .0708    115    1    100.0    5 
 2/06/20   2:35   15.9   15.9   15.9    61    8.4   7.0   NNE   0.58  13.0     N   15.5   15.2   14.8  1019.1  0.00  0.00   0.008   0.000   35.3    28   14.1   35.2   5.36  .0708    116    1    100.0    5 
 2/06/20   2:40   15.8   15.9   15.8    61    8.3   6.0   NNE   0.50  10.0    NE   15.7   15.2   15.0  1019.1  0.00  0.00   0.009   0.000   35.3    28   14.1   35.2   5.36  .0708    117    1    100.0    5 
 2/06/20   2:45   15.8   15.9   15.8    62    8.6   4.0   NNE   0.33   8.0   NNE   15.8   15.2   15.2  1019.0  0.00  0.00   0.009   0.000   35.3    28   14.0   35.2   5.36  .0708    117    1    100.0    5 
 2/06/20   2:50   15.8   15.8   15.8    62    8.6   5.0   NNE   0.42   9.0    NE   15.8   15.2   15.2  1019.1  0.00  0.00   0.009   0.000   35.3    28   14.0   35.2   5.36  .0708    117    1    100.0    5 
 2/06/20   2:55   15.9   15.9   15.8    62    8.6   4.0   NNE   0.33   9.0   NNE   15.9   15.3   15.3  1019.0  0.00  0.00   0.008   0.000   35.3    28   14.0   35.2   5.36  .0708    116    1    100.0    5 
 2/06/20   3:00   15.9   15.9   15.8    63    8.9   5.0   NNE   0.42   9.0     E   15.9   15.3   15.3  1018.9  0.00  0.00   0.008   0.000   35.3    28   14.0   35.2   5.36  .0708    116    1    100.0    5 
 2/06/20   3:05   15.8   15.9   15.8    64    9.0   6.0   NNE   0.50   9.0    NE   15.7   15.3   15.2  1018.9  0.00  0.00   0.009   0.000   35.3    28   14.0   35.2   5.36  .0708    115    1    100.0    5 
 2/06/20   3:10   15.8   15.9   15.8    64    9.0   5.0   NNE   0.42  12.0    NE   15.8   15.3   15.3  1018.8  0.00  0.00   0.009   0.000   35.3    28   14.0   35.2   5.36  .0708    116    1    100.0    5 
 2/06/20   3:15   15.8   15.9   15.8    65    9.3   5.0   NNE   0.42  10.0   NNE   15.8   15.4   15.4  1018.9  0.00  0.00   0.009   0.000   35.2    28   14.0   35.1   5.36  .0708    117    1    100.0    5 
 2/06/20   3:20   15.8   15.8   15.8    66    9.4   6.0   NNE   0.50  10.0     N   15.6   15.3   15.2  1018.9  0.00  0.00   0.009   0.000   35.2    28   14.0   35.1   5.36  .0708    117    1    100.0    5 
 2/06/20   3:25   15.8   15.8   15.7    66    9.4   7.0   NNE   0.58  13.0   NNE   15.4   15.3   14.9  1018.9  0.00  0.00   0.009   0.000   35.2    28   13.9   35.0   5.36  .0708    115    1    100.0    5 
 2/06/20   3:30   15.8   15.8   15.7    66    9.4   5.0   NNE   0.42  10.0   NNE   15.8   15.3   15.3  1018.9  0.00  0.00   0.009   0.000   35.2    28   14.0   35.1   5.36  .0708    117    1    100.0    5 
 2/06/20   3:35   15.8   15.8   15.7    66    9.4   6.0     N   0.50  11.0   NNE   15.6   15.3   15.2  1018.9  0.00  0.00   0.009   0.000   35.2    28   13.9   35.0   5.36  .0708    116    1    100.0    5 
 2/06/20   3:40   15.8   15.8   15.7    65    9.2   7.0   NNE   0.58  11.0    NE   15.4   15.3   14.9  1019.0  0.00  0.00   0.009   0.000   35.2    28   13.9   35.0   5.36  .0708    117    1    100.0    5 
 2/06/20   3:45   15.8   15.8   15.7    65    9.2   7.0   NNE   0.58  12.0   NNE   15.4   15.3   14.9  1019.0  0.00  0.00   0.009   0.000   35.2    28   13.9   35.0   5.36  .0708    115    1    100.0    5 
 2/06/20   3:50   15.8   15.8   15.8    65    9.2   5.0     N   0.42   8.0     N   15.8   15.3   15.3  1019.0  0.00  0.00   0.009   0.000   35.1    28   13.9   34.9   5.35  .0708    116    1    100.0    5 
 2/06/20   3:55   15.8   15.8   15.8    65    9.3   6.0   NNE   0.50   9.0   NNE   15.7   15.4   15.2  1018.9  0.00  0.00   0.009   0.000   35.1    28   13.9   34.9   5.35  .0708    117    1    100.0    5 
 2/06/20   4:00   15.8   15.8   15.8    64    9.0   5.0   NNE   0.42  11.0   NNE   15.8   15.3   15.3  1018.9  0.00  0.00   0.009   0.000   35.1    28   13.9   34.9   5.35  .0708    116    1    100.0    5 
 2/06/20   4:05   15.8   15.8   15.8    64    9.0   5.0   NNE   0.42   9.0   NNE   15.8   15.3   15.3  1018.9  0.00  0.00   0.009   0.000   35.1    28   13.9   34.9   5.35  .0708    117    1    100.0    5 
 2/06/20   4:10   15.8   15.8   15.8    64    9.0   4.0   NNE   0.33  10.0   NNE   15.8   15.3   15.3  1019.0  0.00  0.00   0.009   0.000   35.1    28   13.9   34.9   5.35  .0708    117    1    100.0    5 
 2/06/20   4:15   15.8   15.8   15.8    64    9.0   5.0   NNE   0.42   8.0   NNE   15.8   15.3   15.3  1018.9  0.00  0.00   0.009   0.000   35.1    28   13.8   34.9   5.35  .0708    117    1    100.0    5 
 2/06/20   4:20   15.8   15.8   15.8    64    9.0   5.0   NNE   0.42  10.0   NNE   15.8   15.3   15.3  1018.8  0.00  0.00   0.009   0.000   35.1    28   13.8   34.9   5.35  .0708    117    1    100.0    5 
 2/06/20   4:25   15.8   15.8   15.8    64    9.0   5.0   NNE   0.42  11.0     E   15.8   15.3   15.3  1018.8  0.00  0.00   0.009   0.000   35.1    28   13.8   34.9   5.35  .0708    115    1    100.0    5 
 2/06/20   4:30   15.8   15.8   15.8    63    8.7   5.0   NNE   0.42   9.0   NNE   15.8   15.2   15.2  1018.7  0.00  0.00   0.009   0.000   35.1    28   13.8   34.9   5.35  .0708    117    1    100.0    5 
 2/06/20   4:35   15.8   15.8   15.8    63    8.7   4.0   NNE   0.33   9.0   NNE   15.8   15.2   15.2  1018.7  0.00  0.00   0.009   0.000   35.1    28   13.8   34.9   5.35  .0708    117    1    100.0    5 
 2/06/20   4:40   15.8   15.8   15.8    62    8.6   6.0   NNE   0.50  10.0     N   15.7   15.2   15.1  1018.8  0.00  0.00   0.009   0.000   35.0    28   13.8   34.8   5.35  .0708    116    1    100.0    5 
 2/06/20   4:45   15.8   15.8   15.8    62    8.6   7.0   NNE   0.58  11.0    NE   15.4   15.2   14.8  1018.7  0.00  0.00   0.009   0.000   35.0    28   13.8   34.8   5.35  .0708    115    1    100.0    5 
 2/06/20   4:50   15.8   15.8   15.8    62    8.6   7.0   NNE   0.58  12.0     N   15.4   15.2   14.8  1018.7  0.00  0.00   0.009   0.000   35.0    28   13.8   34.8   5.35  .0708    117    1    100.0    5 
 2/06/20   4:55   15.9   15.9   15.8    61    8.4   7.0   NNE   0.58  12.0     N   15.5   15.2   14.8  1018.7  0.00  0.00   0.008   0.000   35.0    28   13.8   34.8   5.35  .0708    117    1    100.0    5 
 2/06/20   5:00   15.9   15.9   15.8    61    8.4   9.0   NNE   0.75  16.0    NE   14.7   15.2   14.0  1018.8  0.00  0.00   0.008   0.000   35.0    28   13.8   34.8   5.35  .0708    117    1    100.0    5 
 2/06/20   5:05   15.9   15.9   15.9    60    8.2   9.0   NNE   0.75  13.0     N   14.7   15.3   14.1  1018.7  0.00  0.00   0.008   0.000   34.9    28   13.7   34.7   5.36  .0708    117    1    100.0    5 
 2/06/20   5:10   15.9   16.0   15.9    60    8.2   7.0   NNE   0.58  13.0     N   15.6   15.3   14.9  1018.7  0.00  0.00   0.008   0.000   34.9    28   13.7   34.7   5.36  .0708    114    1    100.0    5 
 2/06/20   5:15   16.0   16.1   15.9    61    8.5   9.0   NNE   0.75  14.0   NNE   14.8   15.4   14.2  1018.6  0.00  0.00   0.008   0.000   34.9    28   13.7   34.7   5.36  .0708    117    1    100.0    5 
 2/06/20   5:20   15.8   16.0   15.8    63    8.8   9.0   NNE   0.75  16.0   NNE   14.6   15.3   14.1  1018.7  0.00  0.00   0.009   0.000   34.9    28   13.7   34.7   5.36  .0709    116    1    100.0    5 
 2/06/20   5:25   15.7   15.8   15.7    64    8.9  11.0   NNE   0.92  18.0     N   13.7   15.2   13.2  1018.7  0.00  0.00   0.009   0.000   34.9    28   13.7   34.7   5.36  .0709    115    1    100.0    5 
 2/06/20   5:30   15.6   15.7   15.6    65    9.1  11.0   NNE   0.92  18.0    NE   13.6   15.1   13.1  1018.6  0.00  0.00   0.009   0.000   34.9    28   13.7   34.7   5.36  .0708    116    1    100.0    5 
 2/06/20   5:35   15.6   15.6   15.6    65    9.1  10.0   NNE   0.83  15.0    NE   13.9   15.1   13.4  1018.7  0.00  0.00   0.009   0.000   34.9    28   13.7   34.7   5.36  .0709    116    1    100.0    5 
 2/06/20   5:40   15.6   15.7   15.6    65    9.1  10.0   NNE   0.83  16.0    NE   13.9   15.1   13.4  1018.6  0.00  0.00   0.009   0.000   34.8    28   13.6   34.6   5.37  .0709    117    1    100.0    5 
 2/06/20   5:45   15.7   15.7   15.6    65    9.1  11.0   NNE   0.92  17.0   NNE   13.6   15.2   13.1  1018.7  0.00  0.00   0.009   0.000   34.8    28   13.6   34.6   5.37  .0709    115    1    100.0    5 
 2/06/20   5:50   15.7   15.7   15.7    66    9.3  10.0   NNE   0.83  16.0   NNE   14.0   15.2   13.6  1018.7  0.00  0.00   0.009   0.000   34.8    28   13.6   34.6   5.37  .0709    115    1    100.0    5 
 2/06/20   5:55   15.7   15.7   15.7    65    9.2  10.0   NNE   0.83  16.0     N   14.1   15.2   13.6  1018.7  0.00  0.00   0.009   0.000   34.8    28   13.6   34.5   5.37  .0709    117    1    100.0    5 
 2/06/20   6:00   15.8   15.8   15.7    65    9.2  10.0   NNE   0.83  16.0   NNE   14.1   15.3   13.6  1018.6  0.00  0.00   0.009   0.000   34.8    28   13.6   34.5   5.37  .0709    117    1    100.0    5 
 2/06/20   6:05   15.8   15.8   15.7    64    9.0  10.0     N   0.83  15.0   NNE   14.2   15.3   13.7  1018.6  0.00  0.00   0.009   0.000   34.8    28   13.6   34.5   5.37  .0709    117    1    100.0    5 
 2/06/20   6:10   15.9   15.9   15.8    64    9.1  11.0   NNE   0.92  18.0   NNE   13.9   15.4   13.4  1018.6  0.00  0.00   0.008   0.000   34.8    28   13.6   34.5   5.37  .0709    114    1    100.0    5 
 2/06/20   6:15   15.9   15.9   15.8    64    9.1  10.0   NNE   0.83  14.0   NNE   14.3   15.4   13.8  1018.6  0.00  0.00   0.008   0.000   34.7    28   13.5   34.4   5.38  .0709    115    1    100.0    5 
 2/06/20   6:20   16.1   16.1   15.9    63    9.1  10.0   NNE   0.83  15.0     N   14.5   15.6   13.9  1018.6  0.00  0.00   0.008   0.000   34.7    28   13.5   34.4   5.38  .0709    115    1    100.0    5 
 2/06/20   6:25   16.2   16.2   16.1    62    8.9   9.0   NNE   0.75  13.0   NNE   15.1   15.7   14.5  1018.6  0.00  0.00   0.007   0.000   34.7    28   13.5   34.3   5.39  .0709    117    1    100.0    5 
 2/06/20   6:30   16.3   16.3   16.2    62    9.0   9.0   NNE   0.75  17.0     N   15.2   15.8   14.6  1018.6  0.00  0.00   0.007   0.000   34.7    28   13.5   34.3   5.39  .0709    117    1    100.0    5 
 2/06/20   6:35   16.3   16.4   16.3    61    8.8  10.0   NNE   0.83  17.0     N   14.8   15.7   14.2  1018.5  0.00  0.00   0.007   0.000   34.7    28   13.5   34.3   5.39  .0709    116    1    100.0    5 
 2/06/20   6:40   16.4   16.4   16.3    62    9.1  10.0   NNE   0.83  13.0   NNE   14.8   15.8   14.3  1018.5  0.00  0.00   0.007   0.000   34.7    28   13.5   34.3   5.39  .0709    116    1    100.0    5 
 2/06/20   6:45   16.4   16.4   16.4    63    9.4   9.0   NNE   0.75  13.0     N   15.3   15.9   14.8  1018.5  0.00  0.00   0.007   0.000   34.7    28   13.5   34.3   5.39  .0709    115    1    100.0    5 
 2/06/20   6:50   16.4   16.4   16.4    62    9.1  10.0   NNE   0.83  14.0    NE   14.9   15.9   14.3  1018.5  0.00  0.00   0.007   0.000   34.6    28   13.4   34.3   5.39  .0709    117    1    100.0    5 
 2/06/20   6:55   16.5   16.5   16.4    63    9.4   8.0   NNE   0.67  14.0   NNE   15.8   16.0   15.3  1018.5  0.00  0.00   0.006   0.000   34.6    28   13.4   34.3   5.39  .0709    117    1    100.0    5 
 2/06/20   7:00   16.7   16.7   16.5    63    9.6   9.0     N   0.75  13.0   NNE   15.6   16.2   15.1  1018.6  0.00  0.00   0.006   0.000   34.6    28   13.4   34.3   5.39  .0709    118    1    100.0    5 
 2/06/20   7:05   16.6   16.7   16.6    63    9.5  10.0   NNE   0.83  14.0   NNE   15.1   16.1   14.6  1018.6  0.00  0.00   0.006   0.000   34.6    28   13.4   34.3   5.39  .0709    116    1    100.0    5 
 2/06/20   7:10   16.5   16.6   16.5    64    9.7  11.0     N   0.92  16.0   NNE   14.6   16.1   14.2  1018.6  0.00  0.00   0.006   0.000   34.6    28   13.4   34.2   5.40  .0709    116    1    100.0    5 
 2/06/20   7:15   16.4   16.6   16.4    65    9.8  10.0   NNE   0.83  15.0    NE   14.9   16.1   14.5  1018.6  0.00  0.00   0.007   0.000   34.6    28   13.4   34.2   5.40  .0709    117    1    100.0    5 
 2/06/20   7:20   16.5   16.6   16.4    64    9.7  10.0     N   0.83  15.0     N   14.9   16.1   14.5  1018.6  0.00  0.00   0.006   0.000   34.6    28   13.4   34.2   5.40  .0709    117    1    100.0    5 
 2/06/20   7:25   16.4   16.5   16.4    65    9.8  11.0     N   0.92  18.0   NNE   14.6   16.1   14.2  1018.6  0.00  0.00   0.007   0.000   34.6    28   13.4   34.2   5.40  .0709    115    1    100.0    5 
 2/06/20   7:30   16.6   16.6   16.4    64    9.7  10.0   NNE   0.83  14.0     N   15.1   16.1   14.6  1018.6  0.00  0.00   0.006   0.000   34.5    28   13.3   34.1   5.40  .0710    116    1    100.0    5 
 2/06/20   7:35   16.7   16.7   16.6    63    9.6  11.0   NNE   0.92  16.0   NNE   14.8   16.2   14.3  1018.5  0.00  0.00   0.006   0.000   34.5    28   13.3   34.1   5.40  .0710    117    1    100.0    5 
 2/06/20   7:40   16.9   16.9   16.7    62    9.6   9.0     N   0.75  14.0   NNE   15.8   16.3   15.3  1018.5  0.00  0.00   0.005   0.000   34.5    28   13.3   34.1   5.40  .0710    117    1    100.0    5 
 2/06/20   7:45   17.1   17.1   16.9    61    9.5   9.0   NNE   0.75  14.0   NNE   16.1   16.6   15.6  1018.5  0.00  0.00   0.004   0.000   34.5    28   13.3   34.1   5.40  .0710    116    1    100.0    5 
 2/06/20   7:50   17.3   17.3   17.1    59    9.2   8.0   NNE   0.67  11.0     N   16.8   16.7   16.2  1018.5  0.00  0.00   0.003   0.000   34.5    28   13.3   34.1   5.40  .0710    117    1    100.0    5 
 2/06/20   7:55   17.6   17.6   17.4    58    9.2   9.0     N   0.75  13.0   NNE   16.7   17.0   16.1  1018.6  0.00  0.00   0.003   0.000   34.5    28   13.3   34.1   5.40  .0710    117    1    100.0    5 
 2/06/20   8:00   17.7   17.7   17.6    59    9.6   9.0     N   0.75  14.0     N   16.8   17.2   16.3  1018.6  0.00  0.00   0.002   0.000   34.5    28   13.3   34.1   5.40  .0710    117    1    100.0    5 
 2/06/20   8:05   17.8   17.8   17.7    60    9.9   9.0   NNE   0.75  13.0   NNE   16.9   17.3   16.4  1018.5  0.00  0.00   0.002   0.000   34.5    28   13.3   34.1   5.40  .0710    116    1    100.0    5 
79930